CHICKENRUNNER Games - Total: 10329
1 2 3 4 5 6 7 8 9 10 11
Rank Song Name Score PGAMB Combo Time
2,388 Hyper Hyper -Definitive Version- [FC] 1,185,385 746 - 22 - 1 - 0 - 1 769 2018-07-29 08:00:58
3,552 Cold Breath 388,480 427 - 31 - 1 - 25 - 10 153 2018-07-29 07:55:28
28,042 {Losing Touch} 381,130 243 - 4 - 0 - 2 - 0 247 2018-07-29 07:21:06
1,987 PISSCORD 490,325 304 - 15 - 0 - 0 - 0 319 2018-07-29 07:02:46
645 Transparent White [FC] 672,600 429 - 6 - 0 - 0 - 0 435 2018-07-29 06:59:00
1,890 See You Dance [FC] 798,425 511 - 5 - 0 - 0 - 0 516 2018-07-29 06:55:35
467 The Impresario 259,220 201 - 7 - 1 - 7 - 7 149 2018-07-29 06:42:15
507 Strength [FC] 1,212,495 762 - 23 - 2 - 0 - 2 787 2018-07-29 06:38:43
239 Smoke Weed Everyday 556,925 553 - 57 - 0 - 6 - 2 239 2018-07-29 06:32:52
2,620 Chaoz Fantasy 712,850 812 - 111 - 13 - 21 - 24 242 2018-07-29 06:29:21
16,429 Kick It 447,220 501 - 59 - 1 - 27 - 12 164 2018-07-29 06:15:16
71,047 Kick It 21,965 14 - 1 - 0 - 3 - 4 15 2018-07-29 06:13:02
652 Cirno's Perfect Math Class 809,885 1,091 - 120 - 11 - 17 - 25 182 2018-07-28 22:17:46
1,543 Cirno's Perfect Math Class 33,930 25 - 4 - 0 - 6 - 3 21 2018-07-28 22:15:03
506 Stuck 965,405 816 - 33 - 2 - 8 - 5 510 2018-07-28 21:35:09
408 Djentrap 1,259,640 1,503 - 190 - 18 - 27 - 44 389 2018-07-28 21:18:30
15,325 Lovely Lovely Lovely 340,625 254 - 8 - 1 - 1 - 1 199 2018-07-28 21:06:19
3,586 Death Piano 975,175 1,394 - 669 - 60 - 330 - 125 126 2018-07-28 21:05:18
11,608 Death Piano 902,770 1,098 - 493 - 31 - 255 - 68 242 2018-07-28 21:00:52
7,058 Glove Stage - Ultra Sweden 304,855 268 - 9 - 0 - 16 - 3 160 2018-07-28 20:57:47
2,457 Driveway [Light] [FC] 513,755 329 - 3 - 0 - 0 - 1 332 2018-07-28 20:54:36
1,628 Techno Green Greens 779,950 534 - 28 - 0 - 1 - 7 479 2018-07-28 19:27:49
753 Tell v2 [FC] 1,281,030 763 - 66 - 14 - 0 - 27 843 2018-07-28 19:24:15
1 Tell [AAA] [FC] 460,350 297 - 0 - 0 - 0 - 0 297 2018-07-28 19:21:19
972 {Evolution} Out Stage 878,840 783 - 76 - 6 - 6 - 9 429 2018-07-28 19:19:00
5,924 {Rose} 975,230 1,150 - 127 - 13 - 11 - 25 311 2018-07-28 19:17:17
2,427 Tambourin Chinois 653,190 644 - 28 - 2 - 2 - 10 292 2018-07-28 19:11:01
2,003 State of Emergency 720,700 749 - 25 - 3 - 7 - 6 304 2018-07-28 19:09:37
2,320 Over the Frail Dream 699,880 739 - 40 - 2 - 8 - 10 285 2018-07-28 19:07:47
2,004 Legendary Etude 1,857,065 1,277 - 44 - 1 - 4 - 10 1,144 2018-07-28 19:05:55
257 Miniboss 732,480 921 - 79 - 3 - 12 - 12 208 2018-07-28 19:02:45
709 Haruka Kanata 1,291,750 909 - 33 - 1 - 1 - 1 783 2018-07-28 19:00:42
1,084 Rainbow Tylenol 766,185 843 - 51 - 4 - 5 - 8 290 2018-07-28 18:58:19
1,844 Mute City Remix 876,320 851 - 19 - 1 - 3 - 4 404 2018-07-28 18:55:25
195 Jews 1 Oppressors 0 1,042,290 707 - 29 - 1 - 5 - 2 647 2018-07-28 18:53:02
517 Jeh Jeh Slammin' (Extended Mix) 1,420,480 1,107 - 66 - 4 - 2 - 6 794 2018-07-28 18:50:41
9,968 Forsaken Neon 375,620 239 - 14 - 0 - 2 - 3 241 2018-07-28 18:42:45
1,927 Color of Giggles 1,001,690 784 - 35 - 1 - 7 - 1 563 2018-07-28 18:41:52
546 Colors of the Wind 837,980 827 - 28 - 0 - 5 - 1 377 2018-07-28 18:39:33
3,200 Colors of the Wind 334,635 216 - 5 - 0 - 8 - 3 217 2018-07-28 18:36:36
1,647 Coat Czech 639,200 637 - 27 - 1 - 5 - 4 283 2018-07-28 18:35:46
15,479 Coat Czech 1,395 3 - 0 - 1 - 7 - 7 2 2018-07-28 18:34:15
1,660 Read The Mind [FC] 704,600 448 - 8 - 0 - 0 - 0 456 2018-07-28 18:31:13
4,795 Beethoven Virus 503,520 444 - 13 - 1 - 1 - 0 256 2018-07-28 18:27:38
3,870 Nitrx 505,425 552 - 67 - 8 - 28 - 18 192 2018-07-28 18:24:53
8,567 Delirium 717,405 934 - 96 - 13 - 35 - 28 188 2018-07-28 18:23:19
838 Fast Rap Battle 920,565 649 - 25 - 2 - 1 - 3 557 2018-07-28 16:12:48
614 Zion 1,106,575 807 - 40 - 3 - 4 - 10 653 2018-07-28 16:09:48
2,228 Haven 1,359,710 894 - 30 - 2 - 1 - 2 860 2018-07-28 16:06:04
2,846 Wish (For FFR) 1,228,975 1,073 - 47 - 6 - 1 - 6 626 2018-07-28 14:09:00
1,361 XP Sounds Attempt 719,580 758 - 40 - 0 - 4 - 4 293 2018-07-28 14:05:14
1,046 Sexplosion 1,350,850 1,005 - 27 - 1 - 14 - 2 795 2018-07-28 14:01:25
401 Gourmet Na Aitsu 1,042,940 1,397 - 154 - 14 - 29 - 27 241 2018-07-28 13:57:38
1,157 HEY HEY MONKEY 934,025 923 - 110 - 9 - 19 - 24 402 2018-07-28 13:53:40
1,200 Electric Daisy Violin 1,110,495 1,211 - 54 - 3 - 11 - 8 433 2018-07-28 13:50:26
561 WE EAT AT FIVE FIVE FIVE (guys) 688,525 844 - 196 - 19 - 38 - 42 182 2018-07-28 13:42:19
1,016 All i wanna do is touch your powerpoints 875,915 1,157 - 207 - 10 - 43 - 29 196 2018-07-28 13:36:27
10,684 PARANOiA ~Darkness Mix~ 834,505 527 - 21 - 0 - 16 - 8 544 2018-07-28 12:46:10
589 Axel Man [FC] 458,975 292 - 5 - 0 - 0 - 0 297 2018-07-28 12:43:07
1,446 Another day 732,975 467 - 16 - 1 - 1 - 1 472 2018-07-28 12:40:51
388 Star [FC] 659,200 422 - 4 - 0 - 0 - 0 426 2018-07-28 12:37:22
1,130 Lesson [FC] 618,155 398 - 1 - 0 - 0 - 1 399 2018-07-28 12:33:43
1 Leave it [AAA] [FC] 582,800 376 - 0 - 0 - 0 - 0 376 2018-07-28 12:30:42
7,855 Samurai Road -Determination- 143,325 90 - 3 - 0 - 0 - 0 93 2018-07-28 12:27:57
8,229 Samurai Road -Determination- 12,860 9 - 2 - 0 - 2 - 1 8 2018-07-28 12:27:35
8,121 Samurai Road -Determination- 32,950 28 - 0 - 0 - 11 - 2 21 2018-07-28 12:27:30
2,051 Blindfolds Aside 1,065,620 1,548 - 210 - 22 - 70 - 52 178 2018-07-28 11:57:38
2,991 Neon-213 776,815 602 - 47 - 2 - 4 - 4 434 2018-07-28 11:52:32
2,615 Toph's OP 1,087,625 714 - 28 - 5 - 3 - 6 688 2018-07-28 11:49:40
2,316 Hungarian Dance No. 7 418,790 474 - 29 - 1 - 6 - 4 152 2018-07-28 11:46:49
973 CS Custom Gun Sounds 587,155 640 - 28 - 3 - 5 - 8 229 2018-07-28 11:45:06
2,058 Brooks Wuz Here 380,795 265 - 6 - 1 - 2 - 2 234 2018-07-28 11:42:43
15,964 Brooks Wuz Here 19,325 10 - 3 - 0 - 0 - 0 13 2018-07-28 11:41:59
1,499 Techno Green Greens [FC] 865,205 536 - 27 - 0 - 0 - 1 563 2018-07-28 11:41:41
7,304 Techno Green Greens 309,095 307 - 26 - 1 - 28 - 14 142 2018-07-28 11:40:19
12,967 Reality 269,300 283 - 63 - 11 - 16 - 16 101 2018-07-28 11:36:35
7,078 Turbulence 844,830 532 - 25 - 1 - 2 - 4 546 2018-07-28 11:32:53
816 Cloud Nine 731,100 808 - 67 - 5 - 12 - 14 272 2018-07-28 11:31:17
2,852 Kamonene 100% 740,550 976 - 75 - 3 - 28 - 18 192 2018-07-28 11:28:15
3,840 B.B. - Euro - 1,057,470 1,179 - 62 - 12 - 11 - 14 395 2018-07-28 11:25:12
1,733 Colorful Course 873,715 612 - 60 - 5 - 8 - 9 523 2018-07-28 11:15:04
286 Renatus 1,048,605 1,428 - 243 - 20 - 64 - 44 216 2018-07-28 11:05:08
1,509 0 (piano version) 831,500 961 - 130 - 12 - 26 - 20 275 2018-07-28 11:01:20
740 Addict 1,260,865 1,188 - 34 - 3 - 3 - 6 599 2018-07-28 10:09:58
11,137 Be Princess 630,595 404 - 11 - 0 - 5 - 4 407 2018-07-28 10:05:51
722 Goatstep 624,455 573 - 55 - 4 - 6 - 9 296 2018-07-28 10:04:34
959 Fear Me (NGADm Entry) 999,905 801 - 41 - 2 - 3 - 5 549 2018-07-28 09:50:52
1,189 Future Destination 343,320 222 - 2 - 0 - 1 - 1 221 2018-07-28 09:42:30
1,939 Shihen 1,077,990 967 - 57 - 1 - 5 - 2 532 2018-07-28 09:36:32
8,304 Necropotence 255,000 269 - 52 - 4 - 11 - 3 96 2018-07-28 09:33:57
2,262 Sexplosion 1,210,020 803 - 34 - 2 - 3 - 8 760 2018-07-28 09:32:57
934 Cloud Nine 681,880 771 - 99 - 5 - 17 - 20 236 2018-07-28 09:14:59
2,048 Chlorophyll 1,232,320 1,127 - 57 - 3 - 7 - 10 599 2018-07-28 09:12:23
3,167 Aztec Templing (Techno-Titlan Mix) 898,385 901 - 55 - 2 - 4 - 8 389 2018-07-28 09:08:55
771 Falcon Punch 826,500 934 - 136 - 2 - 11 - 15 279 2018-07-28 09:06:28
2,502 None Would Escape 1,142,270 1,260 - 102 - 4 - 6 - 7 423 2018-07-28 09:03:27
3,592 Delirium 1,239,770 1,034 - 39 - 3 - 2 - 10 661 2018-07-28 08:58:33
2,951 Tension 1,106,730 923 - 46 - 8 - 3 - 4 587 2018-07-28 08:55:39
550 Electronic Music Is A Joke [FC] 925,680 589 - 10 - 0 - 0 - 1 599 2018-07-28 08:52:36
607 My favorite shoes 849,320 719 - 27 - 3 - 2 - 5 447 2018-07-28 08:50:12
487 Sleep Tight 920,505 854 - 29 - 2 - 4 - 2 444 2018-07-28 08:39:27
233 Unpause the Heat 803,000 870 - 45 - 1 - 9 - 7 315 2018-07-28 08:37:18
497 Zanzibar Green 811,980 682 - 37 - 1 - 1 - 2 427 2018-07-28 08:35:03
1,885 Affected [FC] 1,176,815 742 - 21 - 0 - 0 - 3 763 2018-07-28 08:33:03
926 Cryosleep [FC] 962,055 610 - 13 - 0 - 0 - 1 623 2018-07-28 08:30:02
9,635 Glove Stage - Ultra Sweden 64,080 43 - 0 - 0 - 5 - 1 42 2018-07-28 08:27:51
1,505 Gym Leader (RBY) 804,970 930 - 95 - 9 - 9 - 18 270 2018-07-28 08:27:15
2,314 Victims and Martyrs 1,220,190 1,133 - 52 - 2 - 7 - 10 585 2018-07-28 08:24:26
728 Song of Storms Dubstep Rap Remix [FC] 949,060 596 - 19 - 1 - 0 - 1 616 2018-07-28 08:19:28
846 Big Dog 819,870 649 - 30 - 0 - 1 - 1 455 2018-07-28 08:16:35
243 Smoke Weed Everyday 540,970 556 - 48 - 2 - 10 - 2 225 2018-07-28 08:13:42
3,703 Moonlight Sonata [FC] 309,155 197 - 3 - 0 - 0 - 1 200 2018-07-28 08:10:39
1,631 Almost There [Oni] 1,152,315 1,512 - 291 - 32 - 87 - 105 268 2018-07-28 01:36:18
11,749 Almost There [Oni] 271,925 180 - 13 - 2 - 2 - 7 170 2018-07-28 01:32:23
2,731 Black Key Etude 712,725 826 - 142 - 17 - 12 - 42 223 2018-07-28 01:26:32
2,868 Gaussian Blur 3 1,250,735 833 - 21 - 4 - 1 - 5 787 2018-07-28 01:20:38
1,524 Jelly Roll Blues 902,350 739 - 37 - 1 - 1 - 1 486 2018-07-28 01:15:38
2,675 Amefuri Koneko 869,150 808 - 63 - 5 - 5 - 15 409 2018-07-28 01:10:35
552 You Goddamn Fish 470,840 632 - 101 - 25 - 19 - 51 101 2018-07-28 01:00:47
789 Lives Without Meaning 707,105 679 - 37 - 4 - 2 - 6 324 2018-07-28 00:54:54
368 Death Moon 1,090,415 1,413 - 309 - 44 - 57 - 73 245 2018-07-28 00:50:04
502 Men & Machines [Redemption] 1,211,385 823 - 82 - 11 - 6 - 28 738 2018-07-28 00:46:37
4,096 Flight of the Bumblebee [Rimsky-Korsakov] 538,790 633 - 181 - 29 - 19 - 42 146 2018-07-28 00:42:10
731 Art Of The Madness 1,033,680 1,038 - 95 - 9 - 10 - 37 440 2018-07-28 00:38:11
1,998 Art Of The Madness 193,810 121 - 20 - 2 - 1 - 2 122 2018-07-28 00:33:06
991 Revolutionary Etude v2 1,131,805 1,389 - 88 - 7 - 11 - 16 347 2018-07-27 23:49:39
2,465 Epic 1,167,025 1,106 - 58 - 1 - 10 - 9 546 2018-07-27 23:45:51
1,109 Extreme Dishwasher Race 1,268,780 919 - 77 - 5 - 6 - 13 744 2018-07-27 23:42:11
2,227 Hajnal 1,495,110 1,831 - 140 - 6 - 23 - 32 457 2018-07-27 23:39:30
1,876 Szamar Madar 1,070,600 1,074 - 15 - 1 - 4 - 2 477 2018-07-27 23:34:57
180 Problematic 1,152,450 829 - 34 - 4 - 3 - 7 688 2018-07-27 23:31:42
259 Problematic 642,845 765 - 86 - 7 - 12 - 11 202 2018-07-27 23:28:30
2,333 Kick Your A 1,345,005 975 - 60 - 1 - 2 - 9 793 2018-07-27 23:18:53
820 Addict 1,073,190 1,178 - 42 - 4 - 4 - 12 415 2018-07-27 23:15:41
335 ROCKER HELLCAT 1,054,510 1,029 - 120 - 2 - 7 - 19 458 2018-07-27 23:10:52
3,956 Flight of the Bumblebee [Rimsky-Korsakov] 525,105 646 - 165 - 24 - 27 - 26 132 2018-07-27 23:07:07
540 Truth (xKore Remix) 814,730 1,036 - 122 - 4 - 14 - 25 216 2018-07-27 23:04:47
956 Truth (xKore Remix) 287,040 315 - 35 - 3 - 6 - 7 106 2018-07-27 23:00:54
2,518 600 AD in Piano [FC] 1,528,660 955 - 38 - 0 - 0 - 2 993 2018-07-27 22:56:37
1,357 Falcon Punch 560,305 337 - 31 - 6 - 2 - 14 367 2018-07-27 21:43:53
935 Reminders 1,042,740 925 - 95 - 9 - 7 - 23 510 2018-07-27 21:31:16
1,172 Fei Longer 972,690 696 - 37 - 1 - 4 - 5 581 2018-07-27 21:28:02
5,206 Fei Longer 22,975 14 - 1 - 0 - 0 - 0 15 2018-07-27 21:25:03
705 Impulse 1,587,075 1,707 - 114 - 5 - 10 - 15 620 2018-07-27 21:23:35
1,057 Addict 1,110,420 1,138 - 75 - 5 - 10 - 14 467 2018-07-27 21:18:29
940 Cheat Codes 705,505 542 - 33 - 6 - 6 - 7 400 2018-07-27 21:12:33
2,345 Carrousel Paradise 960,735 904 - 41 - 0 - 2 - 6 453 2018-07-27 21:09:37
408 Revenge of Mister Foxsky 923,625 976 - 87 - 6 - 7 - 13 365 2018-07-27 21:07:08
150 Phantom Of The Opera 1,116,295 735 - 16 - 1 - 1 - 5 708 2018-07-27 21:03:23
1,957 Kirby's Dream Land 976,550 917 - 22 - 2 - 6 - 5 468 2018-07-27 20:59:53
1,470 IVALTEK 964,720 1,053 - 54 - 4 - 4 - 13 372 2018-07-27 20:56:54
2,199 Infernoplex 1,966,515 1,421 - 30 - 3 - 1 - 7 1,177 2018-07-27 20:53:49
2,420 Comfort Betrays 1,203,095 1,079 - 102 - 13 - 6 - 13 583 2018-07-27 20:48:49
1,681 Dokodemo Kawaii 747,445 794 - 51 - 0 - 4 - 2 298 2018-07-27 20:39:50
1,479 Abtrusity 830,460 697 - 20 - 0 - 1 - 4 442 2018-07-27 20:34:55
987 Throwing Fire 847,635 910 - 56 - 1 - 4 - 4 333 2018-07-27 20:29:25
3,005 Tension 1,180,140 920 - 52 - 4 - 4 - 7 661 2018-07-27 20:17:05
621 Case Closed [FC] 1,585,670 997 - 30 - 2 - 0 - 2 1,029 2018-07-27 20:14:05
2,254 Rainbow Tylenol 763,155 519 - 33 - 0 - 1 - 3 469 2018-07-27 20:08:44
4,260 Glove Stage - Ultra Sweden 995,255 623 - 26 - 5 - 2 - 10 646 2018-07-27 20:07:01
9,408 Infernoplex 1,765,800 1,122 - 27 - 1 - 2 - 8 1,142 2018-07-27 20:05:00
1,300 Mario Mix for Piano 875,145 838 - 105 - 0 - 5 - 4 387 2018-07-27 20:00:16
1,626 Bowser the Shredder 260,380 242 - 38 - 4 - 7 - 11 119 2018-07-27 19:57:17
346 The Devil Plays Dance Games 1,012,695 1,221 - 247 - 44 - 60 - 80 291 2018-07-27 19:46:28
725 Bury the Hatchet 1,300,510 1,607 - 99 - 7 - 11 - 27 393 2018-07-27 19:41:17
498 Foam Born (A) The Backtrack 848,935 810 - 149 - 6 - 17 - 30 368 2018-07-27 19:31:27
1,024 Foam Born (A) The Backtrack 297,545 169 - 23 - 6 - 0 - 3 198 2018-07-27 19:28:51
966 Foam Born (A) The Backtrack 298,860 274 - 75 - 15 - 19 - 20 133 2018-07-27 19:26:50
475 Weapon 1,777,510 2,568 - 481 - 49 - 106 - 150 266 2018-07-27 19:09:28
2,554 Caprice No. 5 804,700 1,095 - 159 - 13 - 33 - 38 169 2018-07-27 18:51:49
2,990 Uber Rave 920,465 922 - 31 - 8 - 4 - 18 406 2018-07-27 18:48:31
2,116 HELLBEAT 476,585 472 - 25 - 4 - 3 - 9 211 2018-07-27 18:45:27
3,992 Flight of the Bumblebee [Rimsky-Korsakov] 597,050 646 - 164 - 26 - 26 - 36 204 2018-07-27 18:42:57
775 Duck Hunt 743,420 629 - 18 - 4 - 2 - 4 393 2018-07-27 18:37:59
691 Rast Kissing 799,590 690 - 10 - 0 - 2 - 2 418 2018-07-27 18:36:05
463 Maelstrom 803,235 730 - 26 - 1 - 1 - 8 395 2018-07-27 18:33:18
2,199 Jelly Roll Blues 647,630 715 - 58 - 0 - 5 - 1 240 2018-07-27 18:31:05
558 Art Of The Madness 1,151,520 1,085 - 61 - 3 - 3 - 12 539 2018-07-27 18:28:09
575 jelly 856,820 693 - 35 - 5 - 3 - 15 467 2018-07-27 18:23:53
4,696 AAA 1,104,300 969 - 59 - 3 - 6 - 9 557 2018-07-27 18:19:27
954 HAELEQUIN 944,745 1,220 - 180 - 23 - 36 - 43 235 2018-07-27 18:15:57
830 Stories Can Wait (Virtual Riot Remix) 546,500 328 - 46 - 6 - 2 - 13 354 2018-07-27 18:12:05
2,748 0 (piano version) 648,290 668 - 94 - 10 - 19 - 31 261 2018-07-27 18:03:34
1,092 Infinity [ParagonX9] 506,785 517 - 27 - 0 - 3 - 3 216 2018-07-27 18:01:01
2,859 I'm a Monster 235,870 158 - 12 - 0 - 1 - 1 146 2018-07-27 17:58:30
280 For Alexandria 480,945 479 - 47 - 6 - 18 - 9 210 2018-07-27 17:52:04
490 For Alexandria 162,070 145 - 7 - 1 - 2 - 2 81 2018-07-27 17:50:43
609 Artificial Rose 898,100 1,112 - 220 - 4 - 28 - 27 235 2018-07-27 14:05:10
7,742 {Rose} 900,180 1,048 - 211 - 15 - 27 - 35 274 2018-07-27 13:59:48
983 Stay Crunchy 909,770 1,060 - 56 - 6 - 6 - 5 313 2018-07-27 13:56:07
3,721 Carrousel Paradise 1,195,305 842 - 99 - 0 - 6 - 8 707 2018-07-27 13:52:37
3,185 Legendary Etude 1,388,845 1,236 - 72 - 9 - 9 - 23 692 2018-07-27 13:49:19
3,148 Over the Frail Dream 575,690 694 - 68 - 8 - 19 - 13 181 2018-07-27 13:43:50
4,876 IVALTEK 277,520 271 - 17 - 1 - 4 - 1 125 2018-07-27 13:42:11
248 Metal Crusher [FC] 833,970 520 - 22 - 0 - 0 - 4 542 2018-07-27 12:50:31
326 Insignia 1,113,460 889 - 21 - 1 - 4 - 4 620 2018-07-27 12:48:28
4,260 {Red Alert} 532,310 453 - 35 - 3 - 5 - 4 275 2018-07-27 12:45:00
2,018 Degenerates 1,182,395 1,555 - 114 - 5 - 20 - 14 302 2018-07-27 12:35:07
1,289 Sly 1,091,385 834 - 14 - 3 - 1 - 1 629 2018-07-27 12:30:58
1,351 Faces 2,119,960 1,449 - 23 - 1 - 1 - 3 1,317 2018-07-27 12:28:28
1,404 Asteroid Run 841,945 999 - 54 - 3 - 8 - 2 280 2018-07-27 12:24:35
4,956 Asteroid Run 533,060 329 - 20 - 0 - 1 - 4 347 2018-07-27 12:21:52
10,729 Brooks Wuz Here 142,390 108 - 12 - 0 - 1 - 0 80 2018-07-27 12:20:00
1,737 Zion 492,780 468 - 41 - 1 - 3 - 1 225 2018-07-27 12:19:10
835 Finder 753,285 624 - 52 - 3 - 10 - 14 399 2018-07-27 11:03:55
886 Rainbow Tylenol 992,900 859 - 40 - 2 - 2 - 2 510 2018-07-27 11:01:39
625 s.s.s.s. 404,555 450 - 41 - 4 - 10 - 17 149 2018-07-27 10:59:19
1,771 Toph's OP [FC] 1,156,445 729 - 20 - 1 - 0 - 3 750 2018-07-27 10:57:44
1,374 Nebula [RushJet1] 1,282,370 871 - 18 - 2 - 2 - 6 799 2018-07-27 10:55:37
2,935 Tell Me A Story (Compendium Mix) 553,440 626 - 33 - 5 - 19 - 16 206 2018-07-27 10:52:53
2,639 Night Walker 532,810 330 - 18 - 0 - 2 - 1 347 2018-07-27 10:50:36
596 We Killed The Rave 1,013,455 1,130 - 89 - 4 - 14 - 20 372 2018-07-27 10:39:08
6,823 {Rose} 1,035,945 1,089 - 193 - 6 - 13 - 19 388 2018-07-27 10:35:18
831 EOS 988,680 1,176 - 88 - 8 - 14 - 21 322 2018-07-27 10:31:26
2,806 Dokudenpa 2,133,085 1,531 - 63 - 2 - 4 - 8 1,275 2018-07-27 10:28:31
623 Kaze no Tou 919,530 1,206 - 167 - 17 - 29 - 32 219 2018-07-27 10:23:39
5,890 {Arabian Assassin} 606,165 548 - 47 - 4 - 4 - 7 293 2018-07-27 10:19:34
2,363 Crystal Wind 1,068,070 717 - 37 - 5 - 5 - 9 665 2018-07-27 10:01:49
595 Cirno's Perfect Math Class 1,015,635 1,120 - 98 - 7 - 14 - 18 377 2018-07-27 09:58:46
2,820 Lawn Wake IV (Black) 834,375 921 - 124 - 1 - 13 - 15 298 2018-07-27 09:55:51
1,912 Ievan Polkka (Rin & Len ver.) 686,780 838 - 61 - 5 - 13 - 7 213 2018-07-27 09:52:30
1,039 Infiltration 1,133,980 1,207 - 115 - 7 - 8 - 20 441 2018-07-27 09:49:30
391 Across The Ocean 1,128,365 1,025 - 49 - 0 - 6 - 0 553 2018-07-27 09:45:45
680 Bits and Bytes (Original Mix) 1,025,735 1,004 - 39 - 2 - 4 - 3 464 2018-07-27 09:38:13
2,362 Bits and Bytes (Original Mix) 114,890 102 - 5 - 1 - 2 - 1 58 2018-07-27 09:35:43
2,182 Cutting Circles 998,470 852 - 46 - 0 - 2 - 8 518 2018-07-27 09:05:25
1,101 Nintendon't 1,054,935 968 - 52 - 7 - 31 - 27 518 2018-07-27 09:01:45
209 The Big Sleep 1,261,885 1,570 - 151 - 16 - 20 - 41 363 2018-07-27 08:59:01
584 My Fxxkin Desire For You 807,310 1,122 - 158 - 26 - 35 - 41 157 2018-07-27 08:54:02
583 Level Skip 1,074,710 1,271 - 215 - 11 - 27 - 35 325 2018-07-27 08:50:32
92 Inspector Gadget [Powerglove] 1,398,755 1,828 - 271 - 38 - 72 - 47 340 2018-07-27 08:44:29
946 All i wanna do is touch your powerpoints 904,410 1,208 - 170 - 14 - 25 - 38 201 2018-07-27 08:39:23
535 purple drank 1,058,580 1,310 - 298 - 24 - 77 - 66 280 2018-07-27 08:35:34
948 purple drank 166,560 103 - 12 - 0 - 1 - 4 107 2018-07-27 08:33:06
1,612 Immigraniada (Bassnectar Remix) 645,025 586 - 25 - 0 - 23 - 1 323 2018-07-27 08:26:47
1,987 Kirby's Dream Land 980,935 915 - 25 - 0 - 7 - 1 473 2018-07-27 08:24:53
1,141 Cowbell Rock 304,120 194 - 16 - 0 - 16 - 1 198 2018-07-27 08:22:34
5,379 WAIWAI230 257,265 252 - 18 - 1 - 4 - 5 115 2018-07-27 01:16:21
5,853 Reversing Darts 739,300 644 - 53 - 7 - 2 - 12 371 2018-07-27 01:15:22
1,517 Railgun 199,295 147 - 23 - 2 - 3 - 3 113 2018-07-27 01:13:08
1,554 Railgun 224,545 139 - 11 - 0 - 3 - 0 146 2018-07-27 01:12:34
7,050 Wisdom 711,085 536 - 49 - 2 - 20 - 5 409 2018-07-27 01:11:56
11,533 Wisdom 22,975 14 - 1 - 0 - 0 - 0 15 2018-07-27 01:10:21
5,056 Waltz In The Rain 468,780 292 - 27 - 1 - 20 - 5 307 2018-07-27 01:05:04
29,641 AAA 173,085 153 - 25 - 8 - 4 - 7 83 2018-07-27 01:03:21
29,314 AAA 284,320 163 - 20 - 6 - 0 - 8 189 2018-07-27 01:02:32
37,077 AAA 62,760 39 - 1 - 1 - 0 - 1 41 2018-07-27 01:01:54
2,853 Jelly Roll Blues 580,020 696 - 71 - 1 - 10 - 13 181 2018-07-27 00:42:49
3,588 Jelly Roll Blues 531,565 673 - 85 - 4 - 16 - 11 143 2018-07-27 00:40:46
2,679 X-Tinction 520,065 623 - 96 - 9 - 16 - 26 156 2018-07-27 00:21:20
961 Makiba 840,220 1,172 - 271 - 47 - 57 - 91 138 2018-07-27 00:18:58
728 Disco Balls 758,510 773 - 70 - 4 - 9 - 16 317 2018-07-27 00:16:01
894 jelly 583,525 627 - 77 - 20 - 12 - 44 221 2018-07-27 00:13:03
2,280 Splash Beats 781,080 781 - 44 - 8 - 9 - 11 342 2018-07-27 00:10:57
2,106 Pimp Slap 700,025 651 - 48 - 5 - 4 - 13 330 2018-07-27 00:07:03
3,460 Tambourin Chinois 805,645 611 - 58 - 3 - 4 - 14 455 2018-07-27 00:04:24
1,278 UMAD? 817,010 635 - 63 - 3 - 5 - 9 452 2018-07-27 00:02:17
2,922 Fuji-san 722,095 714 - 64 - 5 - 4 - 12 313 2018-07-26 23:59:29
677 s.s.s.s. 452,750 430 - 59 - 9 - 7 - 15 202 2018-07-26 23:56:22
8,066 Border of Maximum 302,465 320 - 26 - 7 - 3 - 7 120 2018-07-26 23:35:23
1,866 Color of Giggles 1,022,315 787 - 34 - 3 - 3 - 6 581 2018-07-26 23:26:58
5,305 Vertex BETA 1,397,545 1,559 - 152 - 27 - 17 - 46 503 2018-07-26 23:23:27
455 Internal Cannon 940,185 1,037 - 112 - 13 - 10 - 29 342 2018-07-26 23:19:54
726 Pokemon BW - Elite Four Battle 860,745 1,020 - 135 - 30 - 19 - 57 268 2018-07-26 23:16:54
1,003 All i wanna do is touch your powerpoints 996,355 1,171 - 194 - 19 - 33 - 43 309 2018-07-26 23:13:40
449 (The title is) TOO LONG to write here. 1,243,080 1,345 - 128 - 16 - 7 - 29 470 2018-07-26 23:10:51
114 Lust for Blood 1,238,665 1,492 - 259 - 52 - 28 - 67 354 2018-07-26 23:06:05
622 Art Of The Madness 1,012,490 1,076 - 59 - 11 - 6 - 14 406 2018-07-26 23:01:44
1,803 Eradication 897,095 1,129 - 158 - 33 - 22 - 65 239 2018-07-26 22:59:23
1,934 The Epidemic of Unexpected Relapses 1,405,845 1,216 - 53 - 6 - 2 - 12 723 2018-07-26 22:56:25
3,876 Gradeus 1,094,430 1,342 - 134 - 14 - 15 - 32 324 2018-07-26 22:52:26
2,305 Perfect Cherry Storm 793,150 880 - 148 - 22 - 22 - 47 275 2018-07-26 22:38:51
1,680 Toxiferous Dystopia 1,031,315 1,237 - 173 - 18 - 28 - 46 312 2018-07-26 22:36:05
1,517 Thrash 1,379,100 1,839 - 200 - 14 - 36 - 48 324 2018-07-26 22:32:36
797 Amen Iraq 947,800 1,306 - 239 - 51 - 85 - 84 189 2018-07-26 22:28:20
7,157 B.B. - Revenge - 439,135 586 - 92 - 11 - 25 - 16 99 2018-07-26 22:25:28
7,545 B.B. - Revenge - 141,735 160 - 63 - 8 - 15 - 19 41 2018-07-26 22:23:32
1,338 Alive (Pegboard Nerds Remix) [Heavy] 174,480 106 - 8 - 0 - 0 - 1 114 2018-07-26 22:10:45
582 Eirin's Clinic that People Queue Up For 908,590 639 - 22 - 4 - 3 - 10 552 2018-07-26 21:52:12
4,586 Legendary Etude 1,102,220 1,171 - 117 - 15 - 23 - 35 433 2018-07-26 21:49:34
13,403 Legendary Etude 297,870 284 - 40 - 8 - 5 - 11 132 2018-07-26 21:45:15
4,089 Tension 758,870 874 - 82 - 12 - 12 - 16 259 2018-07-26 21:43:55
668 asterisk 721,565 685 - 17 - 2 - 3 - 2 341 2018-07-26 21:41:16
971 MASCARADA 857,145 675 - 13 - 0 - 2 - 3 483 2018-07-26 21:38:52
514 The Gateway [FC] 839,550 540 - 2 - 0 - 0 - 0 542 2018-07-26 21:36:44
6,851 The Gateway 21,700 14 - 0 - 0 - 0 - 0 14 2018-07-26 21:34:49
32,714 AAA 139,065 101 - 8 - 1 - 2 - 6 82 2018-07-26 21:33:44
1,618 Duck Hunt 619,080 550 - 20 - 2 - 3 - 5 312 2018-07-26 21:32:54
517 Sleep Tight [FC] 1,363,990 841 - 45 - 3 - 0 - 5 889 2018-07-26 21:31:22
1,292 Zanzibar Green 499,400 409 - 27 - 1 - 3 - 5 268 2018-07-26 21:29:04
13,283 Tension 678,330 445 - 37 - 7 - 12 - 13 427 2018-07-26 21:26:49
31,865 Tension 510 2 - 0 - 0 - 5 - 2 1 2018-07-26 21:25:44
1,148 Sleep Tight 606,930 505 - 54 - 2 - 2 - 8 315 2018-07-26 21:25:29
3,198 Boss Machine [FC] 887,980 565 - 8 - 2 - 0 - 4 575 2018-07-26 20:48:54
3,435 Boss Machine [FC] 887,380 561 - 14 - 0 - 0 - 1 575 2018-07-26 20:45:29
839 Love, The Elephant [FC] 1,048,425 669 - 9 - 0 - 0 - 0 678 2018-07-26 20:41:12
973 Love, The Elephant [FC] 1,047,305 665 - 13 - 0 - 0 - 1 678 2018-07-26 20:38:31
532 Axel Man [FC] 459,250 293 - 4 - 0 - 0 - 0 297 2018-07-26 20:35:34
990 Maintenance Bot 638,725 569 - 15 - 0 - 1 - 2 322 2018-07-26 20:33:25
2,176 Noir (Remixed) 633,280 541 - 11 - 1 - 1 - 2 333 2018-07-26 20:29:34
1,554 Hungarian Dance No. 5 [FC] 870,725 556 - 7 - 0 - 0 - 0 563 2018-07-26 20:27:32
954 Hungarian Dance No. 5 [FC] 872,100 561 - 2 - 0 - 0 - 0 563 2018-07-26 20:24:48
5,429 CIA Rave 1,394,350 1,007 - 45 - 5 - 3 - 11 829 2018-07-26 20:19:22
21,346 Hanabi 445,805 282 - 6 - 1 - 0 - 0 289 2018-07-26 20:14:47
21,663 Moonbeam 531,100 341 - 2 - 0 - 0 - 0 343 2018-07-26 20:13:28
7,001 CIA Rave 1,309,380 982 - 61 - 11 - 6 - 12 754 2018-07-26 20:11:48
1,424 HEY HEY MONKEY 863,835 846 - 166 - 19 - 30 - 43 362 2018-07-26 20:08:44
3,353 HEY HEY MONKEY 137,100 72 - 20 - 0 - 0 - 0 92 2018-07-26 20:06:28
808 Case Closed 1,480,485 976 - 48 - 3 - 2 - 3 931 2018-07-26 19:59:18
2,903 Pretty Green Onions 1,500,690 1,514 - 74 - 8 - 8 - 16 650 2018-07-26 19:31:36
2,414 For FFR 981,285 794 - 59 - 10 - 3 - 13 529 2018-07-26 19:27:16
2,586 101 kittens 2,360,880 1,610 - 86 - 18 - 12 - 27 1,455 2018-07-26 19:24:04
508 Dragonsbane 681,420 740 - 65 - 13 - 5 - 31 258 2018-07-26 19:16:15
630 Dragonsbane 7,750 5 - 0 - 0 - 0 - 0 5 2018-07-26 19:13:53
1,980 WAIWAI230 659,955 734 - 61 - 4 - 14 - 20 244 2018-07-26 19:13:24
1,373 Bowser the Shredder 469,605 501 - 90 - 9 - 21 - 34 176 2018-07-26 19:01:26
1,732 Bowser the Shredder 157,185 113 - 37 - 2 - 7 - 4 87 2018-07-26 18:59:32
1,335 Tron From Hell 675,820 504 - 12 - 0 - 2 - 3 396 2018-07-26 18:49:53
9,812 Tron From Hell 18,325 11 - 1 - 0 - 0 - 0 12 2018-07-26 18:47:33
424 Chaos [Godspeed] [FC] 1,064,210 667 - 23 - 1 - 0 - 1 691 2018-07-26 18:34:35
856 Miss Jackson 298,475 192 - 3 - 0 - 3 - 1 193 2018-07-26 18:31:20
1,972 My favorite shoes 337,950 284 - 42 - 6 - 3 - 10 171 2018-07-26 18:28:12
2,517 My favorite shoes 620 3 - 0 - 0 - 13 - 0 3 2018-07-26 18:27:26
576 My favorite shoes 790,405 722 - 25 - 2 - 2 - 3 387 2018-07-26 13:20:33
2,476 Wild Sky 705,275 527 - 21 - 0 - 1 - 2 410 2018-07-26 13:17:25
4,543 Speedcore Sunday 951,330 692 - 34 - 4 - 2 - 11 562 2018-07-26 13:09:03
1,857 POWERPUFF GABBERZ 462,530 334 - 26 - 0 - 4 - 4 273 2018-07-26 13:07:03
2,547 Addict (Dr. Ozi Monsta r3mix) 363,655 222 - 20 - 1 - 16 - 2 241 2018-07-26 13:04:04
740 BF2014 986,550 1,153 - 130 - 16 - 11 - 41 320 2018-07-26 12:41:46
149 Gym Training Montage 1,464,240 1,833 - 111 - 11 - 8 - 28 428 2018-07-26 12:38:41
555 Sonic the Hedgehog Dubstep Remix 1,484,965 1,211 - 82 - 3 - 2 - 9 797 2018-07-26 12:33:22
964 All i wanna do is touch your powerpoints 948,535 1,198 - 180 - 5 - 34 - 30 251 2018-07-26 12:28:50
1,136 He's a Pirate - F-777 ReMiX 1,226,390 901 - 64 - 0 - 2 - 7 714 2018-07-26 12:26:19
94 Sis Puella Magica 861,800 909 - 26 - 2 - 7 - 12 357 2018-07-26 12:23:53
1,505 Illumination of the Sky 749,845 994 - 76 - 7 - 18 - 28 188 2018-07-26 12:19:12
569 DubstEpic Symph 770,010 764 - 47 - 3 - 6 - 21 339 2018-07-26 12:16:59
2,401 None Would Escape 1,120,870 1,275 - 84 - 2 - 11 - 9 400 2018-07-26 12:11:39
437 GABBA YAKUZA (RoughSketch 2011 Remix) 1,170,460 1,159 - 62 - 0 - 6 - 9 518 2018-07-26 12:08:21
1,471 IVALTEK 1,004,435 1,057 - 47 - 2 - 9 - 8 413 2018-07-26 12:05:05
833 Cheat Codes 575,905 549 - 44 - 5 - 4 - 9 263 2018-07-26 12:01:49
1,695 Yoshi's Cookie 314,005 240 - 5 - 0 - 1 - 3 181 2018-07-26 11:59:44
1,112 PSYCHIC DiVE 825,365 686 - 16 - 1 - 1 - 4 444 2018-07-26 11:58:39
596 My Catchy Lil Bassline 338,030 222 - 8 - 0 - 17 - 0 219 2018-07-26 11:56:27
3,562 Infiltration 10,265 6 - 1 - 0 - 1 - 0 7 2018-07-26 11:54:58
3,537 Infiltration 16,840 13 - 0 - 0 - 1 - 0 10 2018-07-26 11:54:51
1,596 Gaussian Blur 2 637,470 707 - 50 - 2 - 10 - 7 238 2018-07-26 11:54:15
914 Fast Rap Battle 905,745 646 - 24 - 5 - 1 - 6 544 2018-07-26 11:52:17
2,805 Duck Hunt 305,570 219 - 6 - 2 - 2 - 1 184 2018-07-26 11:50:27
7,433 Final Fantasy 3 Boss 604,470 598 - 43 - 1 - 17 - 2 269 2018-07-26 11:49:29
24,082 Hyper Hyper -Definitive Version- 470,765 300 - 13 - 2 - 22 - 5 309 2018-07-26 11:47:49
811 Spider Dance 248,530 157 - 10 - 2 - 2 - 3 160 2018-07-25 23:49:44
7,080 Frictional Nevada 443,940 573 - 144 - 30 - 24 - 51 96 2018-07-25 23:49:01
9,114 STRAWBERRY SWEETZ 185,130 111 - 20 - 2 - 1 - 11 119 2018-07-25 23:47:29
2,767 The Games We Played [Part 5] [FC] 1,941,745 1,203 - 58 - 3 - 0 - 1 1,264 2018-07-25 23:41:18
3,716 The Games We Played [Part 2] 983,280 650 - 40 - 2 - 1 - 1 615 2018-07-25 23:36:17
1,676 MASCARADA 863,665 648 - 38 - 3 - 1 - 2 497 2018-07-25 23:32:48
6,176 Guitar Vs. Piano 937,585 918 - 79 - 6 - 7 - 10 413 2018-07-25 23:29:21
676 Bury the Hatchet 1,725,965 1,616 - 99 - 6 - 3 - 23 811 2018-07-25 23:21:23
612 I'm a Monster 758,870 779 - 31 - 5 - 4 - 7 323 2018-07-25 23:16:34
1,019 Crazy Hair Day [FC] 1,397,780 887 - 18 - 0 - 0 - 1 905 2018-07-25 23:12:53
4,706 Beethoven Virus 565,410 445 - 12 - 0 - 2 - 1 318 2018-07-25 23:03:24
3,174 Fantranstic 1,199,615 868 - 35 - 0 - 1 - 5 713 2018-07-25 22:49:53
696 C'est la Vie 2,011,445 1,512 - 73 - 6 - 4 - 16 1,161 2018-07-25 22:43:25
8,224 CIA Rave 886,435 959 - 79 - 12 - 10 - 15 340 2018-07-25 22:37:02
3,293 Gaussian Blur 3 956,110 819 - 32 - 4 - 4 - 6 498 2018-07-25 22:27:20
2,152 Horizon Remix 1,673,130 1,318 - 74 - 6 - 1 - 7 928 2018-07-25 22:23:05
2,187 Okusenman! -Hardcore Mix- 977,080 624 - 24 - 0 - 2 - 5 628 2018-07-25 22:18:31
2,160 STRANGEPROGRAM [Cut] 1,237,785 1,223 - 177 - 20 - 22 - 41 523 2018-07-25 21:59:24
600 Camel 1,101,390 1,005 - 55 - 3 - 7 - 24 536 2018-07-25 21:56:25
3,222 Balloon Fever 879,800 852 - 97 - 15 - 6 - 22 386 2018-07-25 21:51:10
327 Red Sphere, Blue Sphere 1,239,330 830 - 53 - 3 - 5 - 18 770 2018-07-25 21:48:25
3,258 Lunar Saturation 851,330 943 - 129 - 11 - 12 - 34 301 2018-07-25 21:45:20
1,714 the Casket of Star 1,536,015 1,480 - 130 - 11 - 6 - 24 688 2018-07-25 21:40:36
997 moon_child -Go with the flow- [FC] 1,853,810 1,162 - 39 - 3 - 0 - 9 1,204 2018-07-25 21:32:44
1,103 Fighting For Control 1,056,155 1,030 - 52 - 1 - 8 - 11 478 2018-07-25 21:28:55
2,249 L9 1,343,135 1,013 - 54 - 7 - 3 - 16 772 2018-07-25 21:25:45
844 Lives Without Meaning 820,370 673 - 40 - 6 - 3 - 9 440 2018-07-25 21:20:58
760 Bits and Bytes (Original Mix) 1,022,145 993 - 45 - 6 - 5 - 8 465 2018-07-25 21:16:53
4,744 B.B. - Revenge - 1,317,645 1,697 - 198 - 15 - 36 - 41 341 2018-07-25 21:12:00
449 Her Majesty 838,930 1,046 - 98 - 8 - 20 - 28 243 2018-07-25 21:07:38
1,023 Heavenly Spores 1,036,695 1,423 - 163 - 18 - 39 - 34 221 2018-07-25 21:04:19
1,896 Rainbow Tylenol 1,042,465 727 - 43 - 2 - 4 - 4 632 2018-07-25 21:00:15
2,466 Rainbow Tylenol 432,370 258 - 23 - 3 - 0 - 1 284 2018-07-25 20:58:24
12,015 Infernoplex 769,315 448 - 59 - 0 - 1 - 0 507 2018-07-25 20:57:20
1,646 Glove Stage - Ultra Sweden 1,140,615 771 - 36 - 1 - 1 - 4 707 2018-07-25 20:18:05
1,730 Tell Me A Story (Compendium Mix) 831,215 649 - 31 - 2 - 1 - 3 466 2018-07-25 20:11:28
2,363 Video Out A 604,005 713 - 29 - 2 - 7 - 3 206 2018-07-25 20:06:33
999 Fall Silently 947,170 896 - 76 - 10 - 6 - 11 435 2018-07-25 19:47:44
5,011 Delirium 1,083,525 1,006 - 59 - 6 - 7 - 8 516 2018-07-25 19:44:04
24,078 Delirium 399,445 270 - 1 - 0 - 1 - 1 251 2018-07-25 19:41:38
466 Truth (xKore Remix) 1,297,845 1,084 - 74 - 15 - 3 - 30 682 2018-07-25 19:40:21
1,236 Truth (xKore Remix) 84,735 57 - 2 - 1 - 20 - 1 59 2018-07-25 19:37:17
876 Grocery Escape Plan 720,620 727 - 151 - 27 - 34 - 35 289 2018-07-25 19:36:15
1,530 Grocery Escape Plan 44,360 37 - 12 - 0 - 23 - 8 28 2018-07-25 19:33:21
878 Ice Disk 1,332,105 1,228 - 55 - 6 - 5 - 10 643 2018-07-25 19:32:18
717 Mortal Kombat Menu Metal 828,975 899 - 60 - 3 - 6 - 14 320 2018-07-25 19:29:37
857 Mortal Kombat Menu Metal 792,825 875 - 80 - 5 - 8 - 11 292 2018-07-25 19:27:17
128 PWRPFF RAVES 1,280,820 1,332 - 144 - 18 - 11 - 48 512 2018-07-25 19:24:49
1,023 Extreme Dishwasher Race 1,392,295 940 - 53 - 12 - 2 - 16 861 2018-07-25 19:20:12
3,804 Classical Insanity 873,550 1,009 - 77 - 7 - 8 - 24 300 2018-07-25 19:12:35
5,835 AAA 881,325 929 - 98 - 5 - 5 - 15 345 2018-07-25 19:10:04
14,571 Tension 517,670 333 - 23 - 5 - 22 - 13 335 2018-07-25 19:01:28
23,727 {Rose} 243,100 151 - 7 - 1 - 3 - 0 159 2018-07-25 18:58:27
38,109 {Rose} 24,800 16 - 0 - 0 - 0 - 0 16 2018-07-25 18:56:55
38,865 {Rose} 21,405 13 - 1 - 0 - 0 - 1 14 2018-07-25 18:56:03
787 Stay Crunchy 1,149,745 1,082 - 41 - 0 - 5 - 4 545 2018-07-25 18:51:43
1,256 Off World Colony 818,820 737 - 24 - 2 - 10 - 7 410 2018-07-25 18:39:46
569 s.s.s.s. 457,260 460 - 37 - 5 - 3 - 13 195 2018-07-25 18:36:53
1,827 Synaxis Symphony 898,175 686 - 19 - 0 - 1 - 2 516 2018-07-25 18:28:19
1,367 Innocent Decay 962,450 709 - 14 - 0 - 1 - 2 569 2018-07-25 18:26:13
675 My favorite shoes 1,125,530 710 - 33 - 7 - 1 - 6 726 2018-07-25 18:17:10
4,653 {Blaze} 1,995,130 1,303 - 59 - 7 - 3 - 10 1,263 2018-07-25 18:11:00
4,303 AAA 914,635 982 - 45 - 4 - 6 - 10 364 2018-07-25 18:06:20
23,497 AAA 501,640 452 - 24 - 4 - 2 - 8 247 2018-07-25 18:00:40
26,754 AAA 390,350 290 - 21 - 3 - 19 - 10 231 2018-07-25 17:58:15
1,917 Final Step 1,663,835 1,804 - 95 - 8 - 9 - 7 648 2018-07-25 17:53:33
763 BF2014 873,460 1,132 - 147 - 13 - 18 - 35 216 2018-07-25 17:48:57
817 Humanism 1,128,155 1,388 - 117 - 2 - 17 - 13 338 2018-07-25 17:46:43
13,832 HELLBEAT 324,585 332 - 37 - 8 - 11 - 11 135 2018-07-25 17:43:35
34,745 HELLBEAT 745 2 - 1 - 0 - 5 - 4 1 2018-07-25 17:42:52
24,152 HELLBEAT 292,270 186 - 21 - 5 - 6 - 11 186 2018-07-25 17:42:46
23,965 HELLBEAT 261,780 192 - 36 - 0 - 8 - 12 149 2018-07-25 17:42:20
30,521 HELLBEAT 91,330 62 - 14 - 0 - 2 - 0 54 2018-07-25 17:41:39
630 The Strategy of Emperor 680,895 920 - 77 - 12 - 18 - 18 159 2018-07-25 17:11:27
345 Closer to the Core 836,855 808 - 69 - 10 - 43 - 37 387 2018-07-25 17:09:31
1,291 SAMBISTA 578,415 614 - 69 - 4 - 46 - 11 236 2018-07-25 17:07:27
2,325 Ice Disk 394,005 407 - 31 - 2 - 14 - 7 166 2018-07-25 17:05:21
2,673 Piano Etude (Demon Fire) [Heavy] 1,446,155 1,470 - 170 - 23 - 24 - 46 598 2018-07-25 16:18:53
973 All i wanna do is touch your powerpoints 1,029,840 1,195 - 173 - 25 - 24 - 46 332 2018-07-25 16:15:07
1,733 Perfect Cherry Storm 787,705 953 - 92 - 17 - 10 - 29 241 2018-07-25 16:12:17
444 The Simpsons 995,830 1,265 - 296 - 62 - 59 - 122 236 2018-07-25 16:10:00
629 Just why 1,613,870 1,254 - 162 - 20 - 12 - 38 883 2018-07-25 16:06:41
3,830 Rave 7 166,355 199 - 68 - 13 - 19 - 31 44 2018-07-25 16:04:03
1,894 Fushigi Usagi Milk Tei 548,290 458 - 88 - 14 - 42 - 28 285 2018-07-25 16:03:13
671 Face in the Gutter 604,820 777 - 84 - 8 - 15 - 21 159 2018-07-25 16:02:00
742 Variations 2 1,072,950 1,112 - 121 - 11 - 15 - 44 433 2018-07-25 15:59:47
782 Dance and Zeal 1,137,005 1,106 - 114 - 11 - 9 - 23 500 2018-07-25 15:57:10
979 VS Boss Battle 583,630 634 - 198 - 38 - 39 - 76 192 2018-07-25 15:55:01
591 Sonic the Hedgehog Dubstep Remix 1,172,600 1,206 - 79 - 5 - 8 - 11 490 2018-07-25 15:49:51
810 Banned Forever 1,434,960 1,807 - 180 - 10 - 26 - 44 400 2018-07-25 15:46:19
1,897 Banned Forever 104,445 65 - 5 - 0 - 2 - 3 68 2018-07-25 15:42:24
595 Autumn Insomnia Session 1,120,740 1,351 - 89 - 3 - 15 - 15 358 2018-07-25 15:39:47
932 Fast Asleep 492,165 605 - 44 - 7 - 9 - 14 150 2018-07-25 15:35:53
12,479 Cutting Circles 136,530 112 - 6 - 0 - 2 - 5 74 2018-07-25 15:32:25
587 NKS2 (Ain't No Half-Steppin' Remix) 871,475 613 - 32 - 1 - 27 - 8 534 2018-07-25 14:01:10
1,316 Fill Me Up With Snacky Happiness 609,220 626 - 25 - 1 - 3 - 4 259 2018-07-25 13:59:09
1,796 Fill Me Up With Snacky Happiness 88,040 61 - 0 - 0 - 21 - 0 61 2018-07-25 13:57:19
830 Fear Me (NGADm Entry) [FC] 1,301,535 806 - 41 - 0 - 0 - 2 847 2018-07-25 13:56:27
3,154 Kick Your A 981,740 947 - 69 - 3 - 19 - 18 448 2018-07-25 13:53:43
1,642 Sirius 1,255,940 798 - 57 - 3 - 2 - 9 802 2018-07-25 13:47:04
963 Stuck 792,290 645 - 15 - 1 - 2 - 1 434 2018-07-25 13:44:46
859 Splinter 365,835 274 - 27 - 6 - 4 - 19 209 2018-07-25 13:42:39
1,229 teraholic 426,345 592 - 46 - 7 - 19 - 20 94 2018-07-25 13:37:43
481 Truth (xKore Remix) 896,735 1,077 - 80 - 7 - 12 - 14 286 2018-07-25 13:34:00
2,014 Adult's Sketchbook 786,800 808 - 46 - 4 - 11 - 3 333 2018-07-25 13:31:21
4,657 Galaxy 706,900 454 - 10 - 0 - 21 - 2 461 2018-07-25 13:27:16
665 Art Of The Madness 1,047,545 1,058 - 77 - 8 - 9 - 9 447 2018-07-25 13:25:13
2,229 Yoshi's Cookie [FC] 376,695 231 - 13 - 2 - 0 - 2 246 2018-07-25 13:22:51
6,052 Tension 781,075 820 - 45 - 6 - 33 - 20 328 2018-07-25 13:21:29
3,950 Z 1,178,170 840 - 28 - 2 - 2 - 1 709 2018-07-25 13:18:36
3,109 Playdoh 833,165 908 - 61 - 12 - 5 - 6 318 2018-07-25 13:16:08
2,255 Force of Light 1,005,935 1,037 - 31 - 0 - 6 - 4 429 2018-07-25 13:12:33
380 Heroes On Your Lawn At Night [FC] 1,084,625 694 - 7 - 0 - 0 - 0 701 2018-07-25 12:59:05
592 Lunar Eclipse - a nation of moon #6 1,179,560 1,010 - 29 - 1 - 3 - 2 617 2018-07-25 12:55:16
2,842 Hyper Pressure 1,497,235 1,072 - 33 - 4 - 2 - 2 899 2018-07-25 12:52:08
1,064 Off World Colony 629,205 745 - 22 - 1 - 5 - 5 215 2018-07-25 12:49:28
171 Bring The Madness 961,470 830 - 12 - 0 - 1 - 1 502 2018-07-25 12:47:08
969 Sky Dive [FC] 1,169,150 751 - 4 - 0 - 0 - 0 755 2018-07-25 12:44:12
2,684 Tribal Revival 1,085,705 963 - 34 - 1 - 1 - 2 547 2018-07-25 12:41:40
360 Eirin's Clinic that People Queue Up For [FC] 1,032,100 656 - 12 - 0 - 0 - 0 668 2018-07-25 12:38:32
2,109 Go Go Go Power Rangers [FC] 823,415 524 - 8 - 1 - 0 - 2 533 2018-07-25 12:36:17
2,698 ABCDEath 440,495 350 - 26 - 3 - 4 - 4 242 2018-07-25 12:33:56
355 Zion 1,212,440 837 - 16 - 0 - 1 - 0 748 2018-07-25 12:32:05
810 Duck Hunt 703,250 626 - 21 - 3 - 3 - 3 354 2018-07-25 12:28:44
909 Fall Silently 986,695 908 - 68 - 7 - 5 - 12 470 2018-07-25 12:27:02
495 Maelstrom [FC] 1,164,115 719 - 39 - 0 - 0 - 3 758 2018-07-25 12:23:56
3,020 End Night 965,825 1,024 - 86 - 3 - 13 - 8 383 2018-07-25 12:21:09
21,243 End Night 73,300 48 - 4 - 0 - 20 - 0 52 2018-07-25 12:18:35
1,347 Disconnected [Pegboard Nerds] 1,090,380 695 - 20 - 0 - 1 - 3 703 2018-07-25 10:34:05
2,187 Radiant 408,210 272 - 7 - 1 - 1 - 3 257 2018-07-25 10:26:54
4,086 Yoshi's Cookie 310,490 212 - 10 - 0 - 22 - 2 198 2018-07-25 10:25:40
2,475 Yoshi's Cookie 298,155 230 - 10 - 5 - 1 - 3 169 2018-07-25 10:25:09
5,555 Scythe of 13 1,426,840 1,374 - 187 - 17 - 44 - 29 633 2018-07-25 10:21:27
2,280 Be Princess 1,032,100 868 - 34 - 2 - 2 - 7 546 2018-07-25 10:17:34
2,178 Pure In Asia 905,840 920 - 56 - 6 - 21 - 19 391 2018-07-25 10:14:37
654 pain night grand tin 998,710 878 - 39 - 1 - 3 - 2 506 2018-07-25 10:11:02
651 Mortal Kombat Menu Metal 896,340 910 - 50 - 2 - 6 - 8 384 2018-07-25 10:06:41
1,091 LUV CAN SAVE U 353,095 342 - 16 - 1 - 24 - 1 168 2018-07-25 10:02:49
126 PWRPFF RAVES 1,109,470 1,337 - 134 - 14 - 20 - 15 343 2018-07-25 10:01:44
1,291 R/\IN 1,080,955 674 - 38 - 5 - 1 - 8 700 2018-07-25 09:46:24
1,032 Session 881,715 911 - 27 - 4 - 6 - 6 375 2018-07-25 09:36:44
607 Bodies In The House Next Door [FC] 200,125 125 - 5 - 0 - 0 - 0 130 2018-07-25 09:32:48
1,084 Louder than Thunder [FC] 651,330 412 - 10 - 0 - 0 - 1 422 2018-07-25 09:30:55
892 Fast Asleep 611,810 607 - 46 - 6 - 6 - 8 267 2018-07-25 09:23:00
760 Cloud Nine 733,940 818 - 61 - 7 - 6 - 13 269 2018-07-25 09:21:16
2,012 Colorful Course 614,935 393 - 21 - 0 - 3 - 3 394 2018-07-25 09:19:11
2,529 Black Key Etude 729,590 861 - 106 - 10 - 20 - 23 233 2018-07-25 09:18:04
1,140 We Killed The Rave 534,870 544 - 10 - 4 - 4 - 3 234 2018-07-25 09:08:14
993 Rainbow Tylenol 1,103,230 845 - 55 - 1 - 2 - 4 624 2018-07-25 08:34:04
311 Dragonsbane 2,544,485 3,057 - 338 - 35 - 36 - 79 781 2018-07-25 08:31:02
580 s.s.s.s. 499,370 458 - 38 - 6 - 3 - 19 238 2018-07-25 08:20:58
2,405 Fett's Vette [FC] 779,230 493 - 11 - 1 - 0 - 0 505 2018-07-25 08:16:51
5,140 Speed Kitty 633,750 407 - 10 - 2 - 6 - 5 409 2018-07-25 08:13:42
1,993 Electric Obsession 786,750 550 - 30 - 4 - 16 - 13 481 2018-07-25 08:11:01
1,276 Maintenance Bot [FC] 898,570 557 - 26 - 2 - 0 - 2 585 2018-07-25 08:08:05
478 Xyris 466,200 351 - 14 - 0 - 2 - 4 270 2018-07-25 08:04:53
3,633 Prototypical 861,205 815 - 25 - 2 - 3 - 5 407 2018-07-25 08:01:56
507 Curtain [FC] 687,910 426 - 20 - 2 - 0 - 0 448 2018-07-25 07:57:42
5,855 Snake Riddim 806,110 657 - 34 - 2 - 2 - 4 436 2018-07-25 07:53:56
1,185 Twist [FC] 909,780 559 - 34 - 0 - 0 - 1 593 2018-07-25 07:51:29
154 Pear 737,750 567 - 54 - 0 - 3 - 1 412 2018-07-25 07:49:35
2,264 Purple 506,070 422 - 61 - 9 - 6 - 22 259 2018-07-25 00:59:29
614 Cirno's Perfect Math Class 1,138,925 1,113 - 99 - 12 - 15 - 23 504 2018-07-25 00:58:02
396 Across The Ocean 1,119,485 1,024 - 48 - 5 - 3 - 13 544 2018-07-25 00:55:24
809 VS PSYCHOSHY 666,265 784 - 70 - 5 - 6 - 30 218 2018-07-25 00:52:26
539 You Goddamn Fish 534,055 638 - 106 - 23 - 10 - 58 157 2018-07-25 00:49:45
2,383 Reality 631,060 674 - 168 - 54 - 25 - 103 221 2018-07-25 00:47:51
844 NaiNai 69 873,430 986 - 238 - 66 - 33 - 136 275 2018-07-25 00:45:21
455 Fanteucpx[zv 658,765 818 - 299 - 62 - 71 - 138 148 2018-07-25 00:42:58
2,637 Frictional Nevada 1,134,645 1,054 - 227 - 24 - 20 - 80 499 2018-07-25 00:39:44
555 Paraclete [Heavy] 896,430 1,164 - 253 - 57 - 26 - 121 194 2018-07-25 00:36:45
1,810 Nomina Nuda Tenemus [Heavy] 537,765 617 - 257 - 62 - 51 - 143 143 2018-07-25 00:32:43
493 o'er the flood 1,024,265 1,463 - 328 - 51 - 71 - 119 151 2018-07-25 00:28:27
612 Premium Pine 725,335 677 - 67 - 4 - 8 - 9 337 2018-07-25 00:15:33
10,910 Szamar Madar 910,820 576 - 28 - 0 - 2 - 3 587 2018-07-25 00:13:48
18,013 Szamar Madar 2,550 0 - 2 - 0 - 0 - 0 2 2018-07-25 00:12:24
2,683 Dazzling Destiny 1,055,980 886 - 74 - 6 - 2 - 19 549 2018-07-25 00:12:02
3,527 Dazzling Destiny 535,730 489 - 42 - 6 - 6 - 12 257 2018-07-25 00:10:08
2,581 Fall Silently 493,895 394 - 50 - 5 - 5 - 14 265 2018-07-25 00:08:57
3,372 Fall Silently 2,480 2 - 0 - 0 - 2 - 0 2 2018-07-25 00:08:00
536 Mega Man 9 Rock Medley 2,494,650 3,473 - 323 - 33 - 30 - 92 505 2018-07-24 22:09:04
502 Internal Cannon 852,730 1,004 - 127 - 31 - 10 - 50 268 2018-07-24 22:00:28
293 Megalovania 1,068,915 1,191 - 331 - 56 - 52 - 106 338 2018-07-24 21:57:46
811 Positively Inclined (CanBlaster & Myd Remix) 1,640,570 1,548 - 79 - 7 - 2 - 16 768 2018-07-24 21:54:11
2,102 Perfect Cherry Storm 769,225 907 - 127 - 22 - 16 - 40 240 2018-07-24 21:49:31
1,732 Midnight Dragon 1,102,485 1,231 - 146 - 11 - 8 - 42 388 2018-07-24 21:46:35
1,903 Hajnal 1,744,155 1,876 - 107 - 8 - 9 - 36 686 2018-07-24 21:42:51
477 Falcon Punch 1,116,495 1,029 - 44 - 5 - 5 - 14 540 2018-07-24 21:38:50
465 Flame Repellent 1,659,550 1,113 - 29 - 3 - 2 - 6 1,040 2018-07-24 21:35:37
995 Rocket Flight 531,065 499 - 48 - 5 - 2 - 12 244 2018-07-24 21:31:26
2,879 ABCDEath 442,595 344 - 32 - 5 - 2 - 3 245 2018-07-24 21:29:55
612 Cirno's Perfect Math Class 848,010 1,116 - 91 - 21 - 11 - 28 212 2018-07-24 21:25:48
932 Lawn Wake IX 590,920 366 - 21 - 3 - 20 - 6 390 2018-07-24 21:21:34
540 WE EAT AT FIVE FIVE FIVE (guys) 792,500 874 - 164 - 34 - 25 - 71 274 2018-07-24 21:19:38
1,774 LITTLE GOD CH@NNEL 1,687,820 2,255 - 432 - 64 - 63 - 111 347 2018-07-24 21:16:38
3,622 Winter Wind Etude 409,005 542 - 207 - 40 - 62 - 100 73 2018-07-24 21:11:34
1,932 Fushigi Usagi Milk Tei 598,020 412 - 86 - 12 - 17 - 31 353 2018-07-24 21:09:52
549 S.E.B. in B.E.D. 1,065,530 1,410 - 186 - 22 - 37 - 43 250 2018-07-24 21:07:20
466 Gangsters Paradise (Candyland's OG Remix) 1,204,430 869 - 50 - 6 - 4 - 18 714 2018-07-24 21:02:34
1,653 Speedcore Sunday 971,020 1,089 - 66 - 4 - 12 - 29 358 2018-07-24 20:57:55
1,032 Velocity 841,270 888 - 61 - 1 - 6 - 5 338 2018-07-24 20:55:21
835 Duck Hunt 816,500 624 - 22 - 4 - 3 - 2 468 2018-07-24 20:52:49
1,057 Dokodemo Kawaii [FC] 1,308,465 822 - 27 - 0 - 0 - 3 849 2018-07-24 20:50:13
3,471 Tension 704,875 910 - 51 - 4 - 15 - 11 195 2018-07-24 20:46:33
568 Eirin's Clinic that People Queue Up For 566,690 638 - 26 - 0 - 4 - 6 210 2018-07-24 20:43:41
1,275 Cloud Nine 546,115 605 - 72 - 13 - 9 - 18 196 2018-07-24 20:05:11
2,129 Black Key Etude 767,240 899 - 78 - 8 - 12 - 19 255 2018-07-24 19:44:41
1,444 Cold Breath [FC] 1,331,175 832 - 31 - 2 - 0 - 3 865 2018-07-24 19:42:30
3,734 Cold Breath 27,900 18 - 0 - 0 - 0 - 0 18 2018-07-24 19:39:42
669 Art Of The Madness 869,880 1,057 - 80 - 4 - 11 - 14 270 2018-07-24 19:39:00
2,778 Sepia 863,965 732 - 28 - 1 - 1 - 4 454 2018-07-24 19:36:01
491 Sleep Tight 1,032,755 850 - 36 - 1 - 2 - 4 556 2018-07-24 19:32:34
3,417 Thinking Different [FC] 1,391,060 878 - 22 - 2 - 0 - 0 902 2018-07-24 19:30:12
2,400 Mercury Lamp 1,472,100 1,030 - 18 - 0 - 1 - 2 901 2018-07-24 19:26:59
1,917 Vanity Angel (Seraphim Mix) 1,188,515 735 - 56 - 5 - 1 - 5 769 2018-07-24 19:23:55
1,570 Virtual Emotion [FC] 1,153,145 727 - 19 - 2 - 0 - 2 748 2018-07-24 19:21:17
1,550 Skeletor 921,335 1,060 - 134 - 11 - 28 - 22 310 2018-07-24 19:12:12
1,989 Eradication 788,410 1,087 - 188 - 30 - 37 - 66 150 2018-07-24 19:08:34
736 Gruntilda's Final Battle 846,425 1,101 - 263 - 34 - 76 - 88 192 2018-07-24 19:05:55
397 Direct Advance 1,149,185 954 - 97 - 10 - 4 - 25 599 2018-07-24 19:02:44
212 Funny Funky Freaky 1,234,700 1,096 - 114 - 18 - 12 - 36 604 2018-07-24 18:50:41
1,500 Etude Op. 10, No. 9 in F minor 613,175 854 - 129 - 18 - 23 - 43 115 2018-07-24 18:48:05
639 Bowser the Shredder 843,825 1,017 - 164 - 17 - 22 - 37 246 2018-07-24 18:44:35
764 Phalanx 553,770 681 - 109 - 15 - 16 - 31 154 2018-07-24 18:41:15
2,012 My favorite shoes 403,110 257 - 34 - 2 - 2 - 4 253 2018-07-24 18:38:54
7,187 Chlorophyll 440,945 315 - 12 - 1 - 2 - 2 265 2018-07-24 18:31:19
9,846 {Frozen} 924,695 834 - 29 - 0 - 22 - 8 465 2018-07-24 18:30:07
1,952 {Big Boss} 656,750 564 - 30 - 0 - 2 - 4 339 2018-07-24 18:27:45
2,894 Fuji-san 711,635 715 - 64 - 1 - 7 - 5 303 2018-07-24 18:26:06
1,591 Ambient Angels 1,015,520 924 - 144 - 10 - 43 - 25 481 2018-07-24 18:24:32
3,363 Ambient Angels 164,435 102 - 5 - 0 - 0 - 2 107 2018-07-24 18:22:18
2,928 Black Key Etude 661,950 821 - 125 - 15 - 36 - 32 187 2018-07-24 18:21:19
3,494 R3 (Omega Mix) 734,650 635 - 47 - 5 - 2 - 9 373 2018-07-24 18:19:30
1,003 PISSCORD 625,685 779 - 73 - 4 - 6 - 10 179 2018-07-24 18:16:42
622 In The Clouds [FC] 322,830 205 - 4 - 0 - 0 - 1 209 2018-07-24 18:12:26
4,845 Gameboy Rave! 633,670 394 - 21 - 1 - 6 - 0 413 2018-07-24 18:05:57
2,570 Nyanyanyanyanyanyanya! 462,130 528 - 92 - 6 - 40 - 25 159 2018-07-24 18:03:41
7,977 Bloodmeat 98,040 75 - 18 - 4 - 4 - 7 53 2018-07-24 18:00:31
3,833 CS Custom Gun Sounds 161,765 106 - 3 - 0 - 4 - 6 104 2018-07-24 17:56:33
312 Slashmaid 495,860 407 - 35 - 3 - 8 - 15 265 2018-07-24 16:31:43
558 Not Our Tomorrow 700,815 893 - 143 - 24 - 64 - 57 190 2018-07-24 16:30:02
1,644 K8107 1,133,415 926 - 116 - 13 - 16 - 27 597 2018-07-24 16:28:06
350 Rave 1 1,096,635 1,256 - 215 - 16 - 43 - 42 360 2018-07-24 16:25:23
538 Alive (Pegboard Nerds Remix) [Heavy] 1,023,025 1,117 - 125 - 8 - 18 - 28 380 2018-07-24 16:22:30
868 Makiba 946,555 1,291 - 196 - 25 - 35 - 46 193 2018-07-24 16:18:43
755 MEPHISTO 912,845 1,229 - 278 - 43 - 80 - 56 184 2018-07-24 16:16:06
339 welc.moe 1,320,585 825 - 35 - 4 - 3 - 4 858 2018-07-24 16:13:50
493 Renatus 439,200 464 - 39 - 1 - 8 - 15 176 2018-07-24 16:11:34
12,660 *twinklesky* 435,705 273 - 14 - 1 - 1 - 2 282 2018-07-24 16:08:30
1,426 Techno Green Greens 688,735 541 - 20 - 1 - 1 - 3 386 2018-07-24 16:05:48
14,646 Techno Green Greens 9,005 5 - 1 - 0 - 0 - 1 6 2018-07-24 16:04:41
12,927 Techno Green Greens 56,210 35 - 1 - 1 - 1 - 3 37 2018-07-24 16:02:57
936 DARK KNIGHT 86,890 60 - 9 - 1 - 2 - 1 52 2018-07-24 16:02:03
437 Artificial Intelligence Bomb 811,315 764 - 79 - 10 - 28 - 24 378 2018-07-24 15:21:35
185 Breaka Railway 624,980 708 - 82 - 2 - 18 - 25 219 2018-07-24 15:19:14
410 Lexus Cyanixs 1,278,125 1,370 - 179 - 22 - 31 - 60 485 2018-07-24 15:17:19
372 Bubble Bath Aftermath 1,847,105 1,699 - 122 - 5 - 15 - 26 884 2018-07-24 15:14:21
283 Rampage 1,278,070 1,432 - 166 - 28 - 24 - 64 452 2018-07-24 15:09:22
427 Rising Blue Lightning 1,621,715 2,005 - 158 - 9 - 8 - 25 478 2018-07-24 14:55:25
1,765 Gaussian Blur 2 592,595 367 - 17 - 2 - 0 - 2 386 2018-07-24 14:51:22
2,816 Gaussian Blur 3 986,230 834 - 21 - 3 - 1 - 5 522 2018-07-24 14:48:54
1,734 the Dream of Scarlet 704,325 464 - 9 - 0 - 1 - 2 447 2018-07-24 14:45:26
3,244 Flight of the Bumblebee [Rimsky-Korsakov] 640,720 676 - 146 - 18 - 22 - 20 235 2018-07-24 14:43:35
1,884 Playdoh 994,045 951 - 31 - 2 - 2 - 1 463 2018-07-24 14:41:42
22,148 Playdoh 15,500 10 - 0 - 0 - 0 - 0 10 2018-07-24 14:38:44
942 Devilz Staircase 720,010 954 - 96 - 20 - 17 - 46 174 2018-07-24 14:19:03
1,364 Louder!! Louder!!!! Louder!!!!!! 514,370 294 - 56 - 20 - 3 - 45 338 2018-07-24 14:09:14
1,829 B.B. - Revenge - 1,637,200 2,119 - 225 - 15 - 23 - 41 417 2018-07-24 14:07:14
2,764 300 1,186,910 1,012 - 84 - 8 - 9 - 22 610 2018-07-24 14:02:33
394 Stupor of Peace 20,350 14 - 0 - 0 - 1 - 2 13 2018-07-24 13:59:56
231 Stupor of Peace 1,276,200 1,104 - 105 - 15 - 10 - 30 643 2018-07-24 13:59:09
345 Death Moon 1,140,135 1,461 - 271 - 34 - 57 - 57 279 2018-07-24 13:55:48
440 gPrOeWaEtRaFnUdL (Dave! Remix) 1,341,160 1,034 - 69 - 11 - 2 - 25 754 2018-07-24 13:52:21
1,707 Novo Mundo 1,683,160 1,200 - 56 - 4 - 4 - 11 1,009 2018-07-24 13:48:16
790 POWERPUFF GABBERZ 1,383,585 1,588 - 145 - 8 - 21 - 31 477 2018-07-24 13:44:56
5,003 Vertex BETA 1,343,195 1,585 - 124 - 25 - 21 - 26 443 2018-07-24 13:41:01
1,067 HEY HEY MONKEY 858,425 952 - 88 - 7 - 14 - 21 315 2018-07-24 13:37:28
1,957 Black Key Etude 752,730 915 - 64 - 8 - 10 - 23 235 2018-07-24 13:34:41
175 Monstercat Live Performance (3 Year Anniversary Mix) 1,102,520 1,273 - 129 - 17 - 18 - 23 372 2018-07-24 13:32:42
692 Lunar Eclipse - a nation of moon #6 900,955 1,000 - 36 - 1 - 6 - 7 343 2018-07-24 13:21:59
708 Zion 658,465 801 - 36 - 1 - 16 - 4 213 2018-07-24 13:18:26
636 Rainbow Road [Zorsy] 739,765 591 - 11 - 0 - 1 - 0 412 2018-07-24 12:32:22
1,632 Dragon's Final Roar [FC] 972,630 616 - 14 - 0 - 0 - 1 630 2018-07-24 12:28:02
1 Excite Bike [Light] [AAA] [FC] 49,600 32 - 0 - 0 - 0 - 0 32 2018-07-24 12:16:25
1,712 Bits and Bytes (Original Mix) 1,022,885 657 - 15 - 2 - 2 - 4 658 2018-07-24 12:09:14
24,068 Be Princess 600 1 - 0 - 0 - 3 - 1 1 2018-07-24 12:05:18
14,678 Be Princess 251,355 167 - 10 - 1 - 4 - 3 158 2018-07-24 12:04:03
1,457 Call Upon the Seaponies (EuroSHOOBEDOO Mix) 356,310 225 - 8 - 0 - 2 - 1 231 2018-07-24 12:02:23
1,722 Call Upon the Seaponies (EuroSHOOBEDOO Mix) 99,335 60 - 5 - 0 - 0 - 2 65 2018-07-24 12:01:43
1,417 Feelings From the Air 233,140 153 - 7 - 1 - 15 - 17 152 2018-07-24 12:00:01
542 Falcon Punch 932,570 1,014 - 55 - 9 - 5 - 10 361 2018-07-24 11:52:25
1,252 Down 1,068,560 652 - 45 - 7 - 2 - 9 698 2018-07-24 11:49:32
14,593 Jelly Roll Blues 315,395 195 - 16 - 1 - 1 - 0 204 2018-07-24 11:44:19
1,077 Clockwork [MSI] 470,190 376 - 48 - 14 - 4 - 17 251 2018-07-24 11:43:25
26,334 Keep On Lovin' You 215,305 149 - 8 - 3 - 3 - 4 132 2018-07-24 11:42:04
2,396 None Would Escape 1,019,470 1,284 - 67 - 7 - 14 - 10 299 2018-07-24 11:40:43
4,779 Inspector Gadget [Dr. Steel] 634,965 408 - 7 - 0 - 4 - 6 410 2018-07-24 11:36:59
2,497 Ambient Angels 713,345 627 - 28 - 3 - 7 - 10 363 2018-07-24 11:32:09
1,956 Black Key Etude 977,935 915 - 63 - 10 - 9 - 20 460 2018-07-24 11:30:30
7,714 Southern Cross 942,040 1,188 - 86 - 14 - 36 - 31 276 2018-07-24 11:28:49
6,714 Gym Leader (RBY) 428,530 445 - 46 - 2 - 6 - 6 173 2018-07-24 11:26:19
1,464 Brainwave 892,080 870 - 39 - 5 - 4 - 9 404 2018-07-24 11:25:04
8,142 Brainwave 102,605 85 - 10 - 1 - 3 - 1 54 2018-07-24 11:23:11
7,978 SHIND BAD [Cut] 537,165 355 - 26 - 3 - 4 - 8 336 2018-07-24 11:22:24
11,857 Comfort Betrays 91,350 54 - 6 - 0 - 0 - 0 60 2018-07-24 11:21:08
3,433 Destination Unknown 34,390 23 - 0 - 0 - 4 - 1 23 2018-07-24 11:19:48
7,514 Matador 481,270 309 - 6 - 0 - 1 - 1 310 2018-07-24 11:15:57
2,578 We Will Fly 853,285 540 - 14 - 1 - 2 - 0 553 2018-07-24 11:14:44
1,142 Unshakeable [Celldweller] 297,880 192 - 6 - 0 - 1 - 3 191 2018-07-24 11:12:37
2,482 Thrash the Plank 140,020 96 - 2 - 0 - 1 - 1 87 2018-07-24 11:11:10
2,036 Ready to go 438,050 286 - 4 - 0 - 1 - 2 280 2018-07-24 11:09:09
1,217 Railgun 600,965 380 - 12 - 1 - 1 - 4 389 2018-07-24 11:08:08
691 Trobbel 207,905 135 - 1 - 0 - 2 - 0 134 2018-07-24 11:06:01
2,387 X-Y-Z 495,425 302 - 24 - 1 - 1 - 1 323 2018-07-24 11:04:04
7,941 Tell Me A Story (Compendium Mix) 118,230 73 - 4 - 0 - 0 - 1 77 2018-07-24 10:57:26
11,486 Wisdom 27,275 17 - 1 - 0 - 1 - 2 18 2018-07-24 10:55:58
15,456 Video Out A 13,035 8 - 1 - 0 - 2 - 1 9 2018-07-24 10:55:25
610 C'est la Vie 1,735,445 1,539 - 45 - 6 - 5 - 8 878 2018-07-24 10:52:02
543 Danzai Yamaxanadu! [FC] 1,511,835 968 - 9 - 0 - 0 - 2 977 2018-07-24 10:47:28
540 Enchanting Venus [FC] 1,131,200 715 - 18 - 0 - 0 - 0 733 2018-07-24 10:44:22
668 Bits and Bytes (Original Mix) 1,200,580 1,004 - 41 - 1 - 3 - 1 638 2018-07-24 10:41:43
1,426 I am Maid 1,268,010 940 - 16 - 0 - 1 - 4 747 2018-07-24 10:37:07
393 burned down the ghost house and escaped spooks 886,430 866 - 40 - 4 - 3 - 8 400 2018-07-24 10:34:01
395 Zanzibar Green 848,520 697 - 21 - 1 - 2 - 2 460 2018-07-24 10:30:20
568 wiinter dream 1,258,015 853 - 37 - 0 - 1 - 0 779 2018-07-24 10:27:12
1,865 {Big Boss} 542,085 571 - 19 - 2 - 4 - 3 224 2018-07-24 10:25:05
734 Rocket Flight 615,350 527 - 25 - 1 - 1 - 6 319 2018-07-24 10:23:31
3,011 Wish (For FFR) 1,439,655 1,073 - 44 - 5 - 5 - 16 839 2018-07-24 10:22:09
12,350 Wish (For FFR) 291,265 188 - 8 - 1 - 1 - 4 186 2018-07-24 10:17:50
5,152 Black Key Etude 513,545 491 - 45 - 4 - 6 - 12 233 2018-07-24 10:17:06
1,831 Choprite [Heavy] 1,388,290 1,708 - 75 - 7 - 6 - 13 430 2018-07-24 10:15:43
1,059 Ambient Angels 1,108,980 1,084 - 135 - 13 - 44 - 21 489 2018-07-24 10:09:33
762 Arrogant Cobbler 1,260,255 1,279 - 112 - 11 - 20 - 20 532 2018-07-24 10:07:12
1,881 Bits and Bytes (Original Mix) 561,145 514 - 40 - 1 - 21 - 5 274 2018-07-24 09:42:17
1,835 Shihen 1,215,605 974 - 50 - 3 - 3 - 4 667 2018-07-24 09:29:44
9,993 Vertex BETA 1,238,550 1,278 - 150 - 10 - 31 - 27 504 2018-07-24 09:26:06
19,947 Vertex BETA 439,145 407 - 34 - 1 - 3 - 9 207 2018-07-24 09:22:43
991 CQ Boss 860,555 999 - 76 - 7 - 32 - 13 300 2018-07-24 09:21:35
739 Coffin 606,000 637 - 71 - 7 - 32 - 17 246 2018-07-24 09:18:42
2,166 4 Chord Touhou 1,106,635 1,431 - 279 - 24 - 62 - 62 262 2018-07-24 09:16:36
314 Direct Advance 1,383,695 1,010 - 42 - 11 - 2 - 17 817 2018-07-24 09:08:24
447 Not Our Tomorrow 757,190 987 - 106 - 12 - 19 - 29 191 2018-07-24 09:05:11
387 burned down the ghost house and escaped spooks 1,056,515 865 - 42 - 3 - 3 - 1 570 2018-07-24 08:59:27
234 Suicide Pact 1,200,670 1,034 - 90 - 10 - 9 - 27 610 2018-07-24 08:54:57
1,467 Kil Stage 1,354,560 1,073 - 48 - 4 - 9 - 11 754 2018-07-24 08:51:17
384 Alive (Pegboard Nerds Remix) [Heavy] 1,059,205 1,182 - 68 - 9 - 9 - 15 393 2018-07-24 08:48:43
568 Flamingo 953,865 1,310 - 120 - 13 - 31 - 37 210 2018-07-24 08:43:48
659 Cloud Nine 984,035 840 - 42 - 5 - 5 - 12 512 2018-07-24 08:40:38
1,636 Black Key Etude 1,088,450 932 - 56 - 4 - 5 - 11 562 2018-07-24 08:37:53
569 Art Of The Madness 1,364,055 1,083 - 59 - 4 - 6 - 9 754 2018-07-24 08:35:34
1,732 Turkish March 984,415 983 - 56 - 11 - 6 - 19 430 2018-07-24 08:33:12
18,479 Turkish March 292,120 196 - 18 - 2 - 2 - 6 180 2018-07-24 08:30:59
847 Band Dynamics 1,173,325 1,334 - 106 - 7 - 9 - 6 413 2018-07-24 08:29:28
17,873 {Rose} 708,450 457 - 22 - 6 - 10 - 9 454 2018-07-24 08:25:02
614 EOS 1,275,760 1,234 - 44 - 4 - 4 - 1 586 2018-07-24 08:21:36
40,187 That is Fair 18,600 12 - 0 - 0 - 0 - 0 12 2018-07-24 08:18:56
1,575 That is Fair [FC] 911,435 579 - 11 - 0 - 0 - 2 590 2018-07-24 08:18:28
1,125 Pull in Pull in Popped Syo Call up Arrest 393,240 336 - 10 - 0 - 1 - 0 206 2018-07-24 08:16:09
755 tetris [Songs To Wear Pants To] [FC] 555,230 350 - 10 - 0 - 0 - 1 360 2018-07-24 08:14:51
4,751 AAA 1,130,975 964 - 65 - 4 - 4 - 4 584 2018-07-24 08:08:32
1,194 Alone Again At 4AM [FC] 518,260 323 - 13 - 1 - 0 - 1 337 2018-07-24 07:52:04
7,623 Nyanyanyanyanyanyanya! 297,130 230 - 8 - 2 - 2 - 3 169 2018-07-24 07:48:01
1,460 Shu Kurimu no Uta [FC] 355,950 228 - 2 - 0 - 0 - 0 230 2018-07-24 07:46:28
1,590 Above [FC] 314,825 199 - 5 - 0 - 0 - 0 204 2018-07-24 07:38:13
1,924 FF7 - Theme of Aeris [FC] 208,405 132 - 3 - 0 - 0 - 1 135 2018-07-24 07:31:51
14,493 FF7 - Theme of Aeris 12,400 8 - 0 - 0 - 0 - 0 8 2018-07-24 07:29:22
1,195 Infinity [ParagonX9] 460,310 511 - 31 - 1 - 4 - 4 172 2018-07-24 07:23:30
621 Eirin's Clinic that People Queue Up For 810,505 629 - 33 - 4 - 2 - 6 456 2018-07-24 07:01:34
1,406 Eirin's Clinic that People Queue Up For 210,150 129 - 8 - 0 - 0 - 0 137 2018-07-24 06:59:48
691 Beatrice 844,315 987 - 105 - 8 - 11 - 22 276 2018-07-24 06:57:50
8,633 MAX Forever 1,681,165 2,190 - 417 - 38 - 64 - 63 381 2018-07-24 06:52:24
2,143 Crazy Hair Day 1,109,275 852 - 47 - 2 - 4 - 6 629 2018-07-24 06:45:30
3,742 Classical Insanity 1,016,230 1,009 - 80 - 4 - 8 - 23 442 2018-07-23 23:39:49
2,120 Hungarian Dance No. 7 482,185 475 - 31 - 2 - 2 - 4 213 2018-07-23 23:37:10
2,440 Dot Matrix Hero 902,505 952 - 43 - 2 - 3 - 5 368 2018-07-23 23:35:32
1,864 On Conquest and Capture 292,495 254 - 15 - 0 - 1 - 1 149 2018-07-23 23:33:01
349 Red Sphere, Blue Sphere 776,110 823 - 54 - 6 - 8 - 12 311 2018-07-23 23:31:18
190 Miniboss 1,058,330 967 - 43 - 1 - 4 - 8 516 2018-07-23 23:28:08
2,614 Black Key Etude 780,925 844 - 125 - 10 - 18 - 31 288 2018-07-23 23:25:22
2,102 Comfort Betrays 1,035,150 1,112 - 74 - 8 - 6 - 19 405 2018-07-23 23:23:00
3,097 dot death (Stealth Remix) 834,165 908 - 46 - 3 - 9 - 13 325 2018-07-23 22:56:26
937 Radiant 598,470 690 - 67 - 7 - 8 - 18 203 2018-07-23 22:51:20
2,950 Radiant 36,065 21 - 3 - 0 - 1 - 0 24 2018-07-23 22:49:22
235 I'm Getting Serious! 731,705 681 - 105 - 20 - 10 - 36 331 2018-07-23 22:39:51
969 Finder 620,855 614 - 48 - 5 - 22 - 25 277 2018-07-23 22:30:42
797 Finder Keepers 1,104,320 1,013 - 88 - 6 - 6 - 25 525 2018-07-23 22:28:22
1,938 Rainbow Tylenol 793,825 715 - 32 - 1 - 4 - 2 393 2018-07-23 22:26:06
1,390 Cheat Codes 493,595 422 - 21 - 2 - 1 - 4 256 2018-07-23 22:23:50
1,625 0 (piano version) 895,465 935 - 150 - 13 - 31 - 57 350 2018-07-23 22:18:11
7,138 0 (piano version) 23,225 18 - 1 - 0 - 19 - 3 19 2018-07-23 22:13:08
580 Falcon Punch 1,143,240 1,008 - 60 - 10 - 5 - 33 574 2018-07-23 22:11:21
1,094 WE EAT AT FIVE FIVE FIVE (guys) 295,190 225 - 72 - 24 - 16 - 36 156 2018-07-23 22:08:58
2,766 You will die 932,640 579 - 42 - 4 - 4 - 17 604 2018-07-23 22:08:09
506 Double Helix 1,187,205 1,610 - 440 - 65 - 95 - 171 210 2018-07-23 22:06:07
1,928 Shanghai Girl of Meiji 17 1,698,935 1,778 - 121 - 12 - 8 - 21 690 2018-07-23 22:02:01
551 The Strategy of Emperor 968,975 950 - 66 - 3 - 8 - 18 431 2018-07-23 21:57:19
1,027 The Strategy of Emperor 390,655 245 - 9 - 2 - 2 - 3 254 2018-07-23 21:55:21
927 Infiltration 1,621,885 1,243 - 77 - 10 - 7 - 16 919 2018-07-23 21:53:39
231 Spear of Justice 902,545 1,011 - 101 - 14 - 15 - 20 323 2018-07-23 21:50:30
2,016 Sympathizer 1,637,930 1,858 - 58 - 8 - 4 - 6 601 2018-07-23 21:48:15
378 waltz in d-flat op. 64-1 (panic station mix) 976,875 1,139 - 124 - 17 - 9 - 41 319 2018-07-23 21:43:51
550 Boot 967,425 1,074 - 76 - 9 - 7 - 25 358 2018-07-23 21:41:16
174 Monstercat Live Performance (3 Year Anniversary Mix) 1,083,130 1,274 - 130 - 18 - 15 - 33 351 2018-07-23 21:38:27
685 Sonata Pathetique - Mov. I 974,055 1,104 - 70 - 1 - 7 - 14 350 2018-07-23 21:34:13
1,950 Black Key Etude 918,735 914 - 64 - 13 - 6 - 21 400 2018-07-23 21:30:58
7,657 Black Key Etude 163,195 93 - 15 - 0 - 0 - 4 108 2018-07-23 21:29:00
7,410 Black Key Etude 210,490 127 - 9 - 5 - 3 - 9 139 2018-07-23 21:28:08
534 Dreadnought [Heavy] 1,040,370 1,276 - 164 - 18 - 36 - 68 305 2018-07-23 21:23:31
1,745 Rottel-da-station 926,695 1,114 - 91 - 4 - 9 - 23 292 2018-07-23 21:20:20
2,757 300 1,123,355 1,004 - 101 - 4 - 4 - 30 545 2018-07-23 21:17:32
786 Cloud Nine 761,330 808 - 72 - 6 - 6 - 17 299 2018-07-23 21:13:18
22,198 Fantranstic 311,230 203 - 2 - 0 - 3 - 2 200 2018-07-23 21:09:18
942 Duck Hunt 681,550 613 - 31 - 5 - 4 - 8 337 2018-07-23 20:21:52
2,111 State of Emergency 813,980 737 - 42 - 2 - 3 - 5 398 2018-07-23 20:19:58
2,195 Hungarian Dance No. 7 497,645 475 - 29 - 4 - 2 - 9 229 2018-07-23 20:18:01
1,501 K8107 1,042,145 950 - 96 - 15 - 10 - 24 496 2018-07-23 20:13:15
2,054 May The Triforce Be With You 273,975 227 - 25 - 12 - 35 - 28 153 2018-07-23 20:10:15
581 Cirno's Perfect Math Class 1,056,550 1,129 - 90 - 10 - 10 - 30 414 2018-07-23 20:05:37
1,985 R176 1,245,475 950 - 41 - 6 - 1 - 16 712 2018-07-23 20:02:34
14,366 R176 26,075 16 - 1 - 0 - 0 - 0 17 2018-07-23 19:59:57
3,415 Crowdpleaser 878,850 1,112 - 93 - 13 - 18 - 23 247 2018-07-23 19:56:51
482 Maelstrom 900,135 726 - 30 - 1 - 1 - 8 493 2018-07-23 19:53:04
217 Bring The Madness [FC] 1,300,580 821 - 22 - 0 - 0 - 1 843 2018-07-23 19:44:37
969 Sky Dive [FC] 1,169,150 751 - 4 - 0 - 0 - 0 755 2018-07-23 19:41:11
1,217 Ieva's Polka (Basshunter Remix) 1,208,630 788 - 31 - 1 - 1 - 2 767 2018-07-23 19:38:05
426 Eirin's Clinic that People Queue Up For 886,085 653 - 13 - 0 - 2 - 1 524 2018-07-23 19:35:25
1 Temple [Karco] [AAA] [FC] 327,050 211 - 0 - 0 - 0 - 0 211 2018-07-23 19:18:23
321 Major League Can Can 977,105 637 - 60 - 9 - 2 - 31 611 2018-07-23 18:55:56
754 ecstatic ghost party as Nightmare 1,401,415 1,003 - 87 - 12 - 4 - 29 827 2018-07-23 18:54:03
831 VS PSYCHOSHY 979,330 775 - 75 - 13 - 2 - 32 533 2018-07-23 18:51:19
1,745 Border of Maximum 923,955 1,010 - 85 - 8 - 6 - 25 347 2018-07-23 18:44:19
868 Addict (Dr. Ozi Monsta r3mix) 843,610 957 - 37 - 3 - 6 - 11 309 2018-07-23 18:41:17
619 Art Of The Madness 912,520 1,077 - 61 - 3 - 11 - 18 307 2018-07-23 18:35:25
607 Cirno's Perfect Math Class 1,070,295 1,116 - 97 - 12 - 14 - 25 434 2018-07-23 18:32:49
664 Wolf by Night, Human in Dreams 1,061,935 958 - 73 - 8 - 10 - 19 518 2018-07-23 18:30:23
1,695 Witches Hat 1,210,445 1,204 - 71 - 10 - 5 - 14 530 2018-07-23 18:25:29
2,510 Dazzling Destiny 849,955 897 - 65 - 2 - 4 - 7 340 2018-07-23 18:17:24
218 Concussive 991,655 1,038 - 48 - 5 - 8 - 12 410 2018-07-23 18:14:58
1,168 He's a Pirate - F-777 ReMiX 820,030 906 - 52 - 4 - 5 - 12 309 2018-07-23 18:11:30
755 Bits and Bytes (Original Mix) 1,064,480 990 - 53 - 1 - 5 - 5 507 2018-07-23 18:09:12
588 The Whip 1,097,730 1,201 - 69 - 7 - 6 - 16 420 2018-07-23 18:06:03
4,086 XP Sounds Attempt 457,425 288 - 13 - 2 - 18 - 4 301 2018-07-23 18:02:54
1,532 Falcon Punch 299,500 189 - 10 - 0 - 20 - 0 199 2018-07-23 17:21:20
523 Gonna Take You Down! 629,195 700 - 44 - 1 - 6 - 5 234 2018-07-23 17:20:32
2,528 L9 964,340 988 - 79 - 7 - 3 - 12 400 2018-07-23 17:18:36
7,986 L9 41,695 43 - 8 - 1 - 23 - 4 23 2018-07-23 17:12:27
1,545 F 923,690 675 - 10 - 0 - 1 - 0 550 2018-07-23 16:58:46
17,331 Noir (Remixed) 101,730 64 - 2 - 0 - 0 - 1 66 2018-07-23 16:53:26
423 Diamond Dust Zone - Act 1 [FC] 603,400 386 - 4 - 0 - 0 - 0 390 2018-07-23 16:52:09
14,960 Emerald Hill (Metaljonus Mix) 485,490 313 - 6 - 0 - 1 - 0 312 2018-07-23 16:49:35
1,517 Black Noise --_-- [FC] 1,229,965 773 - 25 - 0 - 0 - 3 798 2018-07-23 16:47:44
2,010 Let Mom Sleep [FC] 748,780 475 - 9 - 1 - 0 - 0 485 2018-07-23 16:44:43
469 Tetris [Powerglove] 1,328,015 1,532 - 250 - 39 - 52 - 68 432 2018-07-23 16:28:53
540 You Goddamn Fish 500,315 642 - 99 - 14 - 22 - 48 127 2018-07-23 16:24:23
3,557 300 1,022,665 951 - 133 - 18 - 11 - 27 466 2018-07-23 16:22:35
18,645 300 198,610 126 - 6 - 0 - 14 - 0 132 2018-07-23 16:18:51
852 Duck Hunt [FC] 1,001,660 619 - 29 - 5 - 0 - 2 653 2018-07-23 16:17:29
45,824 Between The Sheets 179,800 116 - 0 - 0 - 0 - 0 116 2018-07-23 16:08:17
2,333 Floating Bridge [FC] 421,165 266 - 7 - 0 - 0 - 3 273 2018-07-23 16:06:23
1,020 Finding a Way 768,975 492 - 10 - 1 - 1 - 6 496 2018-07-23 16:03:35
9,732 Metal Gear Solid Piano Remix 218,560 171 - 4 - 0 - 5 - 2 125 2018-07-23 16:00:35
3,948 In An Instant 215,450 139 - 0 - 0 - 0 - 0 139 2018-07-23 15:56:07
1,585 Kirlian Changes 258,595 213 - 6 - 1 - 4 - 1 141 2018-07-23 15:53:54
1 Pollyanna [AAA] [FC] 159,650 103 - 0 - 0 - 0 - 0 103 2018-07-23 15:50:56
2,547 Unhearted 683,030 439 - 12 - 0 - 2 - 5 439 2018-07-23 15:48:12
1,929 grass-green holiday 301,420 197 - 0 - 0 - 3 - 0 194 2018-07-23 15:07:31
590 Men & Machines [Redemption] 682,305 693 - 128 - 9 - 32 - 31 276 2018-07-23 15:00:44
7,983 SHIND BAD [Cut] 332,830 354 - 41 - 5 - 42 - 20 140 2018-07-23 14:44:38
4,691 Asteroid Run 423,675 386 - 33 - 4 - 6 - 3 204 2018-07-23 14:42:05
2,448 Butterflies (Short Edit) 809,470 827 - 60 - 4 - 6 - 12 340 2018-07-23 14:40:53
12,554 Butterflies (Short Edit) 116,720 78 - 1 - 1 - 21 - 0 80 2018-07-23 14:38:50
322 Seiran's Mad Hammer 809,590 759 - 91 - 7 - 13 - 12 371 2018-07-23 14:37:15
597 Seiran's Mad Hammer 570,185 512 - 39 - 2 - 7 - 4 280 2018-07-23 14:35:08
801 Seiran's Mad Hammer 1,550 2 - 0 - 0 - 5 - 0 2 2018-07-23 14:33:04
664 Seiran's Mad Hammer 515,440 315 - 24 - 0 - 1 - 5 336 2018-07-23 14:32:55
734 My favorite shoes 772,255 696 - 51 - 2 - 2 - 3 376 2018-07-23 14:28:37
1,441 Hello 783,860 487 - 24 - 2 - 2 - 4 510 2018-07-23 13:30:29
494 Silent Wind 554,035 634 - 23 - 0 - 3 - 3 200 2018-07-23 13:26:57
2,175 Yoshi's Cookie [FC] 377,025 233 - 10 - 3 - 0 - 2 246 2018-07-23 13:24:28
488 Maelstrom [FC] 1,164,695 723 - 33 - 2 - 0 - 7 758 2018-07-23 13:22:37
597 Zion 715,535 809 - 38 - 1 - 6 - 3 262 2018-07-23 13:19:37
1,103 Galaxy 765,560 794 - 15 - 1 - 4 - 4 326 2018-07-23 13:16:34
307 Bring The Madness 734,975 800 - 36 - 1 - 6 - 6 287 2018-07-23 13:13:19
376 Unpause the Heat 601,710 810 - 70 - 6 - 39 - 14 149 2018-07-23 13:07:44
600 Heroes On Your Lawn At Night [FC] 1,080,555 680 - 20 - 1 - 0 - 0 701 2018-07-23 13:03:31
680 We Will Fly [FC] 1,247,465 791 - 16 - 1 - 0 - 2 808 2018-07-23 12:59:18
596 Lunar Eclipse - a nation of moon #6 1,527,760 1,008 - 31 - 3 - 1 - 1 965 2018-07-23 12:54:56
2,532 What's What 896,485 587 - 25 - 2 - 1 - 2 567 2018-07-23 12:48:51
3,828 Tension 811,540 891 - 67 - 9 - 13 - 20 307 2018-07-23 12:45:18
1,133 Fire 711,955 507 - 10 - 1 - 2 - 4 431 2018-07-23 12:40:53
1,661 {Firestorm} [FC] 1,558,860 986 - 24 - 0 - 0 - 2 1,010 2018-07-23 12:03:02
750 Cloud Nine 809,025 822 - 56 - 9 - 5 - 21 343 2018-07-23 12:00:06
398 Maelstrom 949,210 738 - 18 - 0 - 2 - 1 539 2018-07-23 11:54:37
721 Mirage Garden (Long Version) 610,620 606 - 47 - 3 - 11 - 18 268 2018-07-23 11:49:13
2,518 Cosmic Orchestra 1,536,370 1,509 - 71 - 3 - 7 - 5 689 2018-07-23 11:45:50
325 Tough Guy (Tim Ismag Remix) 1,077,230 801 - 42 - 4 - 3 - 8 626 2018-07-23 11:41:20
1,207 {Paranorma} [FC] 1,004,025 642 - 7 - 0 - 0 - 0 649 2018-07-23 11:37:37
2,720 {Losing Touch} [FC] 1,121,910 706 - 20 - 2 - 0 - 0 728 2018-07-23 11:32:56
1,174 Kick It [FC] 911,105 587 - 1 - 0 - 0 - 1 588 2018-07-23 11:29:13
1,213 V1 [FC] 943,850 604 - 6 - 0 - 0 - 0 610 2018-07-23 11:25:43
519 N's Farewell [FC] 554,360 353 - 4 - 2 - 0 - 0 359 2018-07-23 11:17:22
3,380 {Losing Touch} 765,735 699 - 25 - 2 - 2 - 4 375 2018-07-23 11:15:09
441 bluebird [FC] 724,025 463 - 5 - 0 - 0 - 0 468 2018-07-23 11:06:32
1,686 Theme of the Dragoon Knights [FC] 292,400 187 - 2 - 0 - 0 - 0 189 2018-07-23 11:02:58
292 Chaos [Godspeed] [FC] 1,068,830 683 - 8 - 0 - 0 - 1 691 2018-07-23 11:01:03
1,832 Starlight [Macgravel] 791,290 671 - 36 - 0 - 2 - 2 413 2018-07-23 10:31:04
890 Nintendon't 1,079,975 1,039 - 61 - 6 - 24 - 7 499 2018-07-23 10:27:02
2,553 C7 Funk 919,330 575 - 26 - 4 - 7 - 6 598 2018-07-23 10:24:39
775 Windy Valley (Genesis'd) [FC] 1,151,000 704 - 42 - 6 - 0 - 4 752 2018-07-23 10:23:01
2,526 Windy Valley (Genesis'd) 204,370 132 - 4 - 0 - 1 - 1 131 2018-07-23 10:21:31
509 Falcon Punch 1,114,985 1,019 - 55 - 4 - 5 - 13 541 2018-07-23 10:18:25
1,780 Falcon Punch 4,350 6 - 0 - 0 - 3 - 1 2 2018-07-23 10:16:20
3,072 Shihen 1,179,930 896 - 49 - 3 - 27 - 7 682 2018-07-23 10:15:43
1,738 Kick Your A 1,096,805 1,006 - 27 - 2 - 3 - 5 537 2018-07-23 10:13:37
4,499 Gacha Gacha Cute Figu atto Mate 557,425 464 - 27 - 2 - 7 - 7 297 2018-07-23 10:11:06
993 Bits and Bytes (Original Mix) 1,084,025 970 - 35 - 2 - 23 - 4 548 2018-07-23 10:09:50
3,381 Cold Breath 762,450 679 - 46 - 4 - 25 - 6 384 2018-07-23 10:07:14
1,540 Gaussian Blur 2 1,114,335 718 - 43 - 6 - 2 - 5 708 2018-07-23 10:05:05
1,411 Gaussian Blur 3 [FC] 1,330,055 854 - 5 - 0 - 0 - 1 859 2018-07-23 10:02:35
2,482 Gaussian Blur 3 [FC] 1,326,005 840 - 18 - 1 - 0 - 0 859 2018-07-23 10:00:13
2,315 Z [FC] 1,347,730 858 - 14 - 0 - 0 - 1 872 2018-07-23 09:57:43
21,197 Z 583,790 431 - 16 - 0 - 2 - 2 343 2018-07-23 09:55:25
424 Unshakeable [Celldweller] 1,487,630 1,001 - 42 - 6 - 2 - 9 926 2018-07-23 09:54:07
1,986 Over the Frail Dream 916,535 753 - 30 - 3 - 3 - 5 495 2018-07-23 09:50:32
2,472 Tension 1,190,645 941 - 31 - 6 - 2 - 7 665 2018-07-23 09:47:55
477 The Strategy of Emperor 834,590 978 - 41 - 3 - 5 - 10 287 2018-07-23 09:44:52
1,832 Happy Happy Shining Star!! [Heavy] 910,835 765 - 41 - 4 - 1 - 5 479 2018-07-23 09:41:25
604 Fear Me (NGADm Entry) [FC] 1,306,465 824 - 23 - 0 - 0 - 3 847 2018-07-23 09:38:45
851 Addict 1,070,290 1,177 - 39 - 3 - 9 - 8 415 2018-07-23 09:36:36
4,960 XP Sounds Attempt 30,955 10 - 8 - 5 - 0 - 1 23 2018-07-23 09:34:05
4,922 XP Sounds Attempt 31,690 16 - 8 - 0 - 1 - 0 21 2018-07-23 09:33:54
1,931 Turbulence 790,480 729 - 24 - 0 - 3 - 7 384 2018-07-23 09:33:33
928 The Limit Does Not Exist 475,430 618 - 152 - 20 - 73 - 37 116 2018-07-23 09:29:34
331 The Devil Plays Dance Games 915,605 1,273 - 203 - 22 - 74 - 32 182 2018-07-23 09:27:45
936 Rocket Flight 575,660 511 - 36 - 4 - 3 - 29 286 2018-07-23 08:54:53
947 Addict (Dr. Ozi Monsta r3mix) 792,890 950 - 41 - 3 - 9 - 13 262 2018-07-23 08:51:05
2,616 UNknown Girl 1,287,655 1,213 - 51 - 0 - 4 - 14 608 2018-07-23 08:46:57
11,081 Classical Insanity 820,285 824 - 58 - 7 - 3 - 16 352 2018-07-23 08:38:53
247 Dragonsbane 2,344,335 3,263 - 164 - 15 - 24 - 40 512 2018-07-23 08:34:42
569 Grassland Filled With Fighting Spirit 962,290 858 - 61 - 7 - 5 - 11 475 2018-07-23 08:26:16
397 Wildstyle 1,175,370 1,109 - 65 - 7 - 8 - 18 550 2018-07-23 08:23:42
784 Wildstyle 533,215 555 - 24 - 1 - 5 - 7 223 2018-07-23 08:20:09
981 Versatile 795,745 1,032 - 84 - 5 - 9 - 22 208 2018-07-23 08:18:38
6,365 Vertex BETA 1,184,615 1,511 - 169 - 20 - 55 - 48 324 2018-07-23 08:16:23
1,665 Felys (Elegiac Mix) [FC] 948,200 592 - 24 - 0 - 0 - 0 616 2018-07-23 08:10:56
1,551 The Worst Is Yet To Come [FC] 383,025 243 - 5 - 0 - 0 - 0 248 2018-07-23 07:20:29
2,157 See You Dance [FC] 797,875 509 - 7 - 0 - 0 - 0 516 2018-07-23 07:18:05
2,867 The Cracking Sky 683,730 464 - 3 - 1 - 1 - 2 428 2018-07-23 07:13:30
115 Smoke Weed Everyday [FC] 951,500 604 - 12 - 0 - 0 - 0 616 2018-07-23 07:09:26
1,623 Fight Through the Forest! [FC] 458,250 294 - 2 - 0 - 0 - 0 296 2018-07-23 07:06:52
1,507 Story of the Constellations [FC] 844,650 540 - 6 - 0 - 0 - 0 546 2018-07-23 07:04:03
1,675 Floating Through Time 357,150 305 - 10 - 0 - 1 - 2 187 2018-07-23 07:01:15
5,634 Straight To Video 868,530 866 - 32 - 2 - 2 - 3 384 2018-07-23 06:58:41
432 Let's Go 1,044,640 966 - 45 - 1 - 3 - 8 502 2018-07-23 06:39:45
760 Dreadnought [Standard] 722,770 640 - 27 - 1 - 5 - 8 365 2018-07-23 06:35:42
2,011 Heel and Toe 801,865 565 - 32 - 1 - 2 - 6 483 2018-07-23 06:31:32
771 Daybreak [Ryan Iyengar] 789,820 667 - 50 - 6 - 3 - 9 410 2018-07-23 06:26:45
744 Taking Wing 581,050 571 - 62 - 6 - 10 - 14 253 2018-07-23 06:22:38
2,256 Shin Trigger 625,325 558 - 36 - 3 - 2 - 1 309 2018-07-23 06:19:33
2,719 Roller Coaster Ride 789,025 577 - 26 - 3 - 2 - 1 465 2018-07-23 06:17:45
402 My Suit & Tie Life (D.licious Live Edit) [FC] 869,120 538 - 26 - 2 - 0 - 2 566 2018-07-23 06:15:33
3,100 Dragon's Final Roar 577,825 583 - 43 - 2 - 2 - 7 246 2018-07-23 06:13:18
864 A Happy Day in Funtown 499,690 502 - 76 - 4 - 11 - 6 206 2018-07-23 06:11:08
445 Try This 386,215 287 - 26 - 5 - 6 - 10 223 2018-07-22 22:48:19
2,120 Splash Beats 888,940 780 - 54 - 2 - 6 - 8 447 2018-07-22 22:47:07
1,793 Defection 424,330 326 - 47 - 5 - 3 - 12 233 2018-07-22 22:44:12
793 Cloud Nine 680,425 810 - 69 - 4 - 9 - 24 219 2018-07-22 22:43:11
2,441 Black Key Etude 690,555 867 - 106 - 7 - 17 - 28 190 2018-07-22 22:41:08
1,436 Makiba 395,810 452 - 68 - 8 - 11 - 26 132 2018-07-22 22:39:23
534 Goatstep 996,030 971 - 108 - 8 - 18 - 29 438 2018-07-22 22:38:16
13,440 Szamar Madar 219,075 129 - 15 - 0 - 0 - 0 144 2018-07-22 22:35:59
3,413 Electric Daisy Violin 867,910 630 - 34 - 0 - 6 - 4 514 2018-07-22 22:35:20
3,140 CS Custom Gun Sounds 425,355 283 - 7 - 2 - 1 - 1 268 2018-07-22 22:11:33
4,883 Chaoz Fantasy 1,040,465 661 - 19 - 0 - 1 - 0 672 2018-07-22 22:10:21
537 Clockwork Gearman [FC] 768,140 486 - 10 - 2 - 0 - 1 498 2018-07-22 22:08:19
694 Endless Tewi-ma Park [FC] 1,490,145 941 - 24 - 1 - 0 - 3 966 2018-07-22 22:06:24
2,937 Endless Tewi-ma Park 89,635 64 - 1 - 0 - 22 - 1 61 2018-07-22 22:03:11
2,351 Endless Tewi-ma Park 537,220 351 - 14 - 0 - 2 - 3 341 2018-07-22 22:02:50
2,391 DMYK 1,110,525 1,360 - 125 - 6 - 24 - 37 336 2018-07-22 21:54:49
869 Kirby Smash 874,735 1,065 - 75 - 10 - 15 - 27 273 2018-07-22 21:24:03
576 Super Signal Force 818,705 826 - 54 - 11 - 5 - 25 351 2018-07-22 21:16:11
2,685 {Frozen} 1,712,285 1,365 - 53 - 12 - 8 - 11 949 2018-07-22 21:10:38
347 KISS CANDY FLAVOR [Heavy] 1,707,950 1,147 - 79 - 9 - 2 - 25 1,056 2018-07-22 21:07:25
2,312 Hardkore Atomic 760,990 840 - 151 - 11 - 32 - 61 268 2018-07-22 21:03:39
2,236 Club 493,260 452 - 101 - 5 - 15 - 37 222 2018-07-22 21:00:52
542 You Goddamn Fish 585,470 633 - 112 - 12 - 20 - 47 213 2018-07-22 20:58:48
3,175 Cosmic Orchestra 1,513,465 1,456 - 125 - 4 - 5 - 19 680 2018-07-22 20:56:21
403 YATA 777,255 929 - 147 - 6 - 25 - 35 234 2018-07-22 20:51:49
1,207 Homosexual Love Scene [FC] 1,457,530 906 - 41 - 1 - 0 - 5 948 2018-07-22 20:47:39
3,682 Life Light 752,440 857 - 50 - 8 - 18 - 26 273 2018-07-22 20:43:29
8,811 Kamonene 100% 60,095 35 - 4 - 1 - 1 - 0 40 2018-07-22 20:40:59
10,183 Be Princess 468,590 462 - 30 - 2 - 15 - 11 211 2018-07-22 20:39:51
952 Fear Me (NGADm Entry) 1,194,345 802 - 39 - 4 - 2 - 4 743 2018-07-22 20:38:33
2,235 Fear Me (NGADm Entry) 672,420 587 - 32 - 4 - 17 - 9 346 2018-07-22 20:36:16
2,212 Yukitsuki-yashou 593,605 633 - 23 - 0 - 25 - 6 247 2018-07-22 20:26:30
3,431 Teh Tricky Techno 357,870 417 - 41 - 3 - 12 - 10 121 2018-07-22 20:24:36
19,446 The Decisive Battle 441,930 266 - 26 - 2 - 5 - 4 290 2018-07-22 20:23:28
23,947 The Decisive Battle 224,125 135 - 11 - 2 - 4 - 1 148 2018-07-22 20:22:38
3,939 Fantranstic 860,685 855 - 42 - 3 - 4 - 2 380 2018-07-22 20:21:54
29,794 Fantranstic 28,900 17 - 2 - 0 - 0 - 0 19 2018-07-22 20:19:53
20,957 Fantranstic 477,245 303 - 15 - 0 - 21 - 1 313 2018-07-22 20:19:38
31,127 Fantranstic 12,340 9 - 0 - 0 - 5 - 3 9 2018-07-22 20:18:53
2,699 The Divine Suicide of K 1,757,470 2,191 - 237 - 27 - 40 - 92 500 2018-07-22 19:09:24
2,431 ABCDEath 535,215 357 - 20 - 1 - 5 - 7 335 2018-07-22 19:03:12
572 Enjoyable Fruit 835,440 888 - 73 - 1 - 3 - 8 328 2018-07-22 19:01:18
683 C'est la Vie 1,409,150 1,514 - 73 - 3 - 5 - 12 558 2018-07-22 18:58:43
4,898 Bloodmeat 640,555 757 - 85 - 6 - 32 - 29 211 2018-07-22 18:53:50
1,772 Chariot 991,940 906 - 34 - 2 - 2 - 10 485 2018-07-22 18:51:41
640 Impulse 1,478,555 1,739 - 78 - 5 - 14 - 14 505 2018-07-22 18:48:48
2,539 Impulse 67,925 43 - 1 - 0 - 0 - 0 44 2018-07-22 18:42:48
1,060 Dokodemo Kawaii 1,240,175 823 - 25 - 0 - 1 - 2 781 2018-07-22 18:42:18
1,738 Beauty Is In The Eyes Of The Beerholder 1,349,275 863 - 40 - 1 - 1 - 6 864 2018-07-22 18:39:49
586 In Flux (5 Note Piano Prelude) 1,737,095 1,332 - 73 - 6 - 11 - 25 988 2018-07-22 18:36:29
1,043 Revolutionary Etude v2 1,263,895 1,366 - 117 - 4 - 8 - 16 483 2018-07-22 18:32:52
308 Red Sphere, Blue Sphere 744,095 844 - 40 - 1 - 6 - 15 271 2018-07-22 18:29:34
616 La fuite des jours "Piano solo" 918,710 1,125 - 94 - 6 - 32 - 15 284 2018-07-22 18:27:27
6,784 Club 283,205 276 - 39 - 4 - 24 - 5 128 2018-07-22 18:24:25
4,620 CIA Rave 1,108,065 1,022 - 31 - 2 - 5 - 6 539 2018-07-22 18:04:48
358 Hello 879,280 774 - 25 - 1 - 1 - 2 447 2018-07-22 18:01:07
5,102 AAA 987,280 963 - 58 - 8 - 8 - 14 444 2018-07-22 17:57:42
244 Bring The Madness 975,500 816 - 26 - 0 - 1 - 7 520 2018-07-22 17:54:44
1,307 Ieva's Polka (Basshunter Remix) 852,830 786 - 31 - 1 - 3 - 6 413 2018-07-22 17:51:44
837 Insomnia (Acid Paradox remix) 1,091,495 691 - 21 - 0 - 1 - 1 706 2018-07-22 17:48:41
212 Valkyrie 468,280 455 - 17 - 1 - 2 - 4 214 2018-07-22 17:45:05
1,600 Robot Army --_-- [FC] 808,625 511 - 13 - 0 - 0 - 0 524 2018-07-22 17:42:02
244 Pointless Fast Rap [FC] 570,850 365 - 4 - 0 - 0 - 0 369 2018-07-22 17:39:40
205 Metal Crusher 705,625 528 - 13 - 0 - 1 - 2 412 2018-07-22 17:37:55
803 G air 745,165 845 - 165 - 20 - 26 - 50 243 2018-07-22 17:36:35
685 Pussy Pump 939,035 1,096 - 152 - 17 - 32 - 29 304 2018-07-22 17:34:21
3,894 WAIWAI230 852,025 542 - 35 - 0 - 2 - 4 545 2018-07-22 17:31:13
4,693 AAA 974,970 977 - 43 - 9 - 8 - 11 428 2018-07-22 17:28:42
884 Coat Czech 675,675 657 - 11 - 0 - 2 - 4 312 2018-07-22 17:24:39
635 Connect (HOUSE SOUL REMIX) [FC] 1,267,165 797 - 25 - 0 - 0 - 3 822 2018-07-22 17:21:52
2,114 Connect (HOUSE SOUL REMIX) 43,000 28 - 2 - 0 - 3 - 1 28 2018-07-22 17:19:50
796 Dimensions of a Square 1,041,595 803 - 20 - 3 - 2 - 5 595 2018-07-22 17:19:28
1,372 0 (piano version) 856,065 984 - 120 - 11 - 14 - 20 286 2018-07-22 17:15:48
2,298 {Big Boss} 555,580 557 - 33 - 3 - 3 - 4 241 2018-07-22 17:13:06
7,493 Purple 212,305 133 - 4 - 1 - 0 - 0 138 2018-07-22 17:10:49
3,642 AAA [FC] 1,594,030 989 - 48 - 0 - 0 - 6 1,037 2018-07-22 17:09:55
5,026 {Blaze} 2,015,530 1,285 - 84 - 2 - 1 - 6 1,286 2018-07-22 17:07:35
33,121 {Blaze} 6,180 4 - 0 - 0 - 0 - 1 4 2018-07-22 17:04:26
4,759 CIA Rave 1,181,060 1,015 - 40 - 4 - 1 - 5 612 2018-07-22 17:03:15
530 Lawn Wake IX 1,325,710 1,156 - 158 - 24 - 20 - 33 652 2018-07-22 16:59:57
906 Lawn Wake IX 457,880 427 - 25 - 3 - 3 - 4 217 2018-07-22 16:57:00
10,595 Dokudenpa 996,505 640 - 25 - 0 - 1 - 3 638 2018-07-22 16:54:38
1,917 Comfort Betrays 1,014,900 1,124 - 66 - 2 - 8 - 4 381 2018-07-22 16:33:51
535 Doomsday 1,197,785 1,045 - 27 - 4 - 5 - 3 617 2018-07-22 16:31:15
685 Song of the second moon [FC] 1,081,760 667 - 36 - 2 - 0 - 5 705 2018-07-22 16:27:41
3,371 Balloon Fever 649,335 849 - 94 - 9 - 18 - 19 162 2018-07-22 16:25:19
1,145 Cirno's Perfect Math Class 709,060 490 - 63 - 7 - 3 - 11 423 2018-07-22 16:23:23
1 2 3 4 5 6 7 8 9 10 11